<?xml version="1.0" encoding="UTF-8" standalone="no" ?>
<gpx xmlns="http://www.topografix.com/GPX/1/1" xmlns:xsi="http://www.w3.org/2001/XMLSchema-instance" xsi:schemaLocation="http://www.topografix.com/GPX/1/1 http://www.topografix.com/GPX/1/1/gpx.xsd" version="1.1" creator="VisuGPX - https://www.visugpx.com">
  <metadata>
    <name>Cannes voulx villeneuve</name>
    <desc><![CDATA[rando VTT de Printemps, faut voir si les chemins sont praticables ]]></desc>
  </metadata>
  <trk>
    <name><![CDATA[Dimanche]]></name>
    <cmt><![CDATA[callardin.free.fr]]></cmt>
    <trkseg>
      <trkpt lat="48.3445" lon="3.05345">
        <ele>58.205295562744</ele>
        <time>2017-03-05T14:04:40Z</time>
      </trkpt>
      <trkpt lat="48.34448" lon="3.0534">
        <ele>58.444458007812</ele>
        <time>2017-03-05T14:04:40Z</time>
      </trkpt>
      <trkpt lat="48.34487" lon="3.0531">
        <ele>56.448554992676</ele>
        <time>2017-03-05T14:04:41Z</time>
      </trkpt>
      <trkpt lat="48.345" lon="3.05294">
        <ele>55.881153106689</ele>
        <time>2017-03-05T14:04:53Z</time>
      </trkpt>
      <trkpt lat="48.34507" lon="3.05281">
        <ele>55.601280212402</ele>
        <time>2017-03-05T14:04:57Z</time>
      </trkpt>
      <trkpt lat="48.34511" lon="3.05265">
        <ele>55.834297180176</ele>
        <time>2017-03-05T14:05:00Z</time>
      </trkpt>
      <trkpt lat="48.34528" lon="3.05158">
        <ele>57.96057510376</ele>
        <time>2017-03-05T14:05:03Z</time>
      </trkpt>
      <trkpt lat="48.34533" lon="3.05139">
        <ele>58.131500244141</ele>
        <time>2017-03-05T14:05:23Z</time>
      </trkpt>
      <trkpt lat="48.34563" lon="3.0507">
        <ele>57.719486236572</ele>
        <time>2017-03-05T14:05:27Z</time>
      </trkpt>
      <trkpt lat="48.34577" lon="3.05036">
        <ele>57.107818603516</ele>
        <time>2017-03-05T14:05:42Z</time>
      </trkpt>
      <trkpt lat="48.34616" lon="3.04971">
        <ele>55.70947265625</ele>
        <time>2017-03-05T14:05:49Z</time>
      </trkpt>
      <trkpt lat="48.34676" lon="3.0489">
        <ele>55.645027160645</ele>
        <time>2017-03-05T14:06:05Z</time>
      </trkpt>
      <trkpt lat="48.34736" lon="3.04801">
        <ele>54.093631744385</ele>
        <time>2017-03-05T14:06:27Z</time>
      </trkpt>
      <trkpt lat="48.3476" lon="3.04765">
        <ele>53.029460906982</ele>
        <time>2017-03-05T14:06:50Z</time>
      </trkpt>
      <trkpt lat="48.34783" lon="3.0472">
        <ele>52.297798156738</ele>
        <time>2017-03-05T14:06:59Z</time>
      </trkpt>
      <trkpt lat="48.34798" lon="3.04692">
        <ele>52.060119628906</ele>
        <time>2017-03-05T14:07:09Z</time>
      </trkpt>
      <trkpt lat="48.34813" lon="3.04671">
        <ele>52.061424255371</ele>
        <time>2017-03-05T14:07:15Z</time>
      </trkpt>
      <trkpt lat="48.34848" lon="3.0464">
        <ele>52.521926879883</ele>
        <time>2017-03-05T14:07:20Z</time>
      </trkpt>
      <trkpt lat="48.34884" lon="3.04612">
        <ele>52.311737060547</ele>
        <time>2017-03-05T14:07:31Z</time>
      </trkpt>
      <trkpt lat="48.34908" lon="3.04589">
        <ele>52.496921539307</ele>
        <time>2017-03-05T14:07:42Z</time>
      </trkpt>
      <trkpt lat="48.34928" lon="3.04559">
        <ele>53.142082214355</ele>
        <time>2017-03-05T14:07:50Z</time>
      </trkpt>
      <trkpt lat="48.35016" lon="3.04373">
        <ele>54.488018035889</ele>
        <time>2017-03-05T14:07:58Z</time>
      </trkpt>
      <trkpt lat="48.351" lon="3.04215">
        <ele>53.64066696167</ele>
        <time>2017-03-05T14:08:39Z</time>
      </trkpt>
      <trkpt lat="48.35105" lon="3.042">
        <ele>53.60489654541</ele>
        <time>2017-03-05T14:09:15Z</time>
      </trkpt>
      <trkpt lat="48.35105" lon="3.042">
        <ele>53.60489654541</ele>
        <time>2017-03-05T14:09:18Z</time>
      </trkpt>
      <trkpt lat="48.35149" lon="3.04076">
        <ele>52.977725982666</ele>
        <time>2017-03-05T14:09:18Z</time>
      </trkpt>
      <trkpt lat="48.35194" lon="3.03916">
        <ele>53.346141815186</ele>
        <time>2017-03-05T14:09:43Z</time>
      </trkpt>
      <trkpt lat="48.35232" lon="3.03798">
        <ele>53.314666748047</ele>
        <time>2017-03-05T14:10:14Z</time>
      </trkpt>
      <trkpt lat="48.3526" lon="3.0372">
        <ele>53</ele>
        <time>2017-03-05T14:10:37Z</time>
      </trkpt>
      <trkpt lat="48.35282" lon="3.03668">
        <ele>53</ele>
        <time>2017-03-05T14:10:53Z</time>
      </trkpt>
      <trkpt lat="48.35296" lon="3.03639">
        <ele>53</ele>
        <time>2017-03-05T14:11:04Z</time>
      </trkpt>
      <trkpt lat="48.35309" lon="3.03619">
        <ele>53.227825164795</ele>
        <time>2017-03-05T14:11:10Z</time>
      </trkpt>
      <trkpt lat="48.35309" lon="3.03619">
        <ele>53.227825164795</ele>
        <time>2017-03-05T14:11:15Z</time>
      </trkpt>
      <trkpt lat="48.35323" lon="3.03608">
        <ele>53.388023376465</ele>
        <time>2017-03-05T14:11:15Z</time>
      </trkpt>
      <trkpt lat="48.35335" lon="3.03588">
        <ele>53.679294586182</ele>
        <time>2017-03-05T14:11:19Z</time>
      </trkpt>
      <trkpt lat="48.35364" lon="3.03496">
        <ele>54.874767303467</ele>
        <time>2017-03-05T14:11:24Z</time>
      </trkpt>
      <trkpt lat="48.35397" lon="3.03373">
        <ele>52.524765014648</ele>
        <time>2017-03-05T14:11:42Z</time>
      </trkpt>
      <trkpt lat="48.35459" lon="3.03159">
        <ele>53.354412078857</ele>
        <time>2017-03-05T14:12:06Z</time>
      </trkpt>
      <trkpt lat="48.35465" lon="3.03133">
        <ele>53.51732635498</ele>
        <time>2017-03-05T14:12:47Z</time>
      </trkpt>
      <trkpt lat="48.35464" lon="3.03125">
        <ele>53.414169311523</ele>
        <time>2017-03-05T14:12:52Z</time>
      </trkpt>
      <trkpt lat="48.35456" lon="3.03117">
        <ele>53.063495635986</ele>
        <time>2017-03-05T14:12:53Z</time>
      </trkpt>
      <trkpt lat="48.35438" lon="3.03107">
        <ele>52.393539428711</ele>
        <time>2017-03-05T14:12:56Z</time>
      </trkpt>
      <trkpt lat="48.35388" lon="3.0307">
        <ele>52.584224700928</ele>
        <time>2017-03-05T14:13:01Z</time>
      </trkpt>
      <trkpt lat="48.3538" lon="3.03061">
        <ele>52.798553466797</ele>
        <time>2017-03-05T14:13:16Z</time>
      </trkpt>
      <trkpt lat="48.3538" lon="3.03061">
        <ele>52.798553466797</ele>
        <time>2017-03-05T14:13:19Z</time>
      </trkpt>
      <trkpt lat="48.35377" lon="3.03054">
        <ele>52.917736053467</ele>
        <time>2017-03-05T14:13:19Z</time>
      </trkpt>
      <trkpt lat="48.3537" lon="3.03051">
        <ele>53.140697479248</ele>
        <time>2017-03-05T14:13:20Z</time>
      </trkpt>
      <trkpt lat="48.35364" lon="3.03048">
        <ele>53.351078033447</ele>
        <time>2017-03-05T14:13:22Z</time>
      </trkpt>
      <trkpt lat="48.35369" lon="3.03045">
        <ele>53.228359222412</ele>
        <time>2017-03-05T14:13:24Z</time>
      </trkpt>
      <trkpt lat="48.35371" lon="3.03045">
        <ele>53.165016174316</ele>
        <time>2017-03-05T14:13:25Z</time>
      </trkpt>
      <trkpt lat="48.35371" lon="3.03045">
        <ele>53.165016174316</ele>
        <time>2017-03-05T14:13:26Z</time>
      </trkpt>
      <trkpt lat="48.35395" lon="3.03043">
        <ele>52.402389526367</ele>
        <time>2017-03-05T14:13:26Z</time>
      </trkpt>
      <trkpt lat="48.35476" lon="3.03042">
        <ele>52.35929107666</ele>
        <time>2017-03-05T14:13:32Z</time>
      </trkpt>
      <trkpt lat="48.35488" lon="3.03042">
        <ele>52.598541259766</ele>
        <time>2017-03-05T14:13:54Z</time>
      </trkpt>
      <trkpt lat="48.35495" lon="3.03033">
        <ele>52.475933074951</ele>
        <time>2017-03-05T14:13:57Z</time>
      </trkpt>
      <trkpt lat="48.35583" lon="3.02795">
        <ele>52.053466796875</ele>
        <time>2017-03-05T14:13:59Z</time>
      </trkpt>
      <trkpt lat="48.35608" lon="3.0272">
        <ele>51.645751953125</ele>
        <time>2017-03-05T14:14:47Z</time>
      </trkpt>
      <trkpt lat="48.35639" lon="3.02638">
        <ele>52.561859130859</ele>
        <time>2017-03-05T14:15:02Z</time>
      </trkpt>
      <trkpt lat="48.35725" lon="3.02383">
        <ele>53.300621032715</ele>
        <time>2017-03-05T14:15:19Z</time>
      </trkpt>
      <trkpt lat="48.35813" lon="3.02114">
        <ele>53.476367950439</ele>
        <time>2017-03-05T14:16:10Z</time>
      </trkpt>
      <trkpt lat="48.35876" lon="3.01915">
        <ele>54.966461181641</ele>
        <time>2017-03-05T14:17:03Z</time>
      </trkpt>
      <trkpt lat="48.3594" lon="3.01715">
        <ele>55.49186706543</ele>
        <time>2017-03-05T14:17:42Z</time>
      </trkpt>
      <trkpt lat="48.35996" lon="3.01559">
        <ele>55.729064941406</ele>
        <time>2017-03-05T14:18:21Z</time>
      </trkpt>
      <trkpt lat="48.36024" lon="3.01472">
        <ele>55.329887390137</ele>
        <time>2017-03-05T14:18:52Z</time>
      </trkpt>
      <trkpt lat="48.36087" lon="3.01296">
        <ele>56.252841949463</ele>
        <time>2017-03-05T14:19:09Z</time>
      </trkpt>
      <trkpt lat="48.36089" lon="3.01286">
        <ele>56.456733703613</ele>
        <time>2017-03-05T14:19:44Z</time>
      </trkpt>
      <trkpt lat="48.36089" lon="3.01286">
        <ele>56.456733703613</ele>
        <time>2017-03-05T14:19:46Z</time>
      </trkpt>
      <trkpt lat="48.36085" lon="3.01281">
        <ele>56.777130126953</ele>
        <time>2017-03-05T14:19:46Z</time>
      </trkpt>
      <trkpt lat="48.36072" lon="3.01279">
        <ele>57.40336227417</ele>
        <time>2017-03-05T14:19:47Z</time>
      </trkpt>
      <trkpt lat="48.36052" lon="3.01283">
        <ele>58.160667419434</ele>
        <time>2017-03-05T14:19:50Z</time>
      </trkpt>
      <trkpt lat="48.36027" lon="3.01284">
        <ele>59.105953216553</ele>
        <time>2017-03-05T14:19:55Z</time>
      </trkpt>
      <trkpt lat="48.36008" lon="3.01278">
        <ele>59.889072418213</ele>
        <time>2017-03-05T14:20:02Z</time>
      </trkpt>
      <trkpt lat="48.36008" lon="3.01278">
        <ele>59.889072418213</ele>
        <time>2017-03-05T14:20:07Z</time>
      </trkpt>
      <trkpt lat="48.36017" lon="3.01198">
        <ele>60.397754669189</ele>
        <time>2017-03-05T14:20:07Z</time>
      </trkpt>
      <trkpt lat="48.36023" lon="3.0116">
        <ele>60.42919921875</ele>
        <time>2017-03-05T14:20:21Z</time>
      </trkpt>
      <trkpt lat="48.36056" lon="3.01085">
        <ele>62.753074645996</ele>
        <time>2017-03-05T14:20:28Z</time>
      </trkpt>
      <trkpt lat="48.36093" lon="3.00993">
        <ele>63.4817237854</ele>
        <time>2017-03-05T14:20:44Z</time>
      </trkpt>
      <trkpt lat="48.36106" lon="3.00944">
        <ele>63.554061889648</ele>
        <time>2017-03-05T14:21:03Z</time>
      </trkpt>
      <trkpt lat="48.3611" lon="3.00924">
        <ele>63.608661651611</ele>
        <time>2017-03-05T14:21:12Z</time>
      </trkpt>
      <trkpt lat="48.36124" lon="3.00889">
        <ele>63.341949462891</ele>
        <time>2017-03-05T14:21:16Z</time>
      </trkpt>
      <trkpt lat="48.3622" lon="3.00642">
        <ele>64.069358825684</ele>
        <time>2017-03-05T14:21:23Z</time>
      </trkpt>
      <trkpt lat="48.36234" lon="3.00597">
        <ele>65</ele>
        <time>2017-03-05T14:22:14Z</time>
      </trkpt>
      <trkpt lat="48.36238" lon="3.00569">
        <ele>65</ele>
        <time>2017-03-05T14:22:23Z</time>
      </trkpt>
      <trkpt lat="48.36241" lon="3.00502">
        <ele>63.301414489746</ele>
        <time>2017-03-05T14:22:28Z</time>
      </trkpt>
      <trkpt lat="48.3624" lon="3.00468">
        <ele>62.182571411133</ele>
        <time>2017-03-05T14:22:40Z</time>
      </trkpt>
      <trkpt lat="48.36234" lon="3.00411">
        <ele>61.527210235596</ele>
        <time>2017-03-05T14:22:46Z</time>
      </trkpt>
      <trkpt lat="48.36231" lon="3.00357">
        <ele>61.034564971924</ele>
        <time>2017-03-05T14:22:56Z</time>
      </trkpt>
      <trkpt lat="48.36234" lon="3.00305">
        <ele>61.461879730225</ele>
        <time>2017-03-05T14:23:06Z</time>
      </trkpt>
      <trkpt lat="48.36266" lon="2.99969">
        <ele>64.75399017334</ele>
        <time>2017-03-05T14:23:15Z</time>
      </trkpt>
      <trkpt lat="48.36279" lon="2.99825">
        <ele>66.216491699219</ele>
        <time>2017-03-05T14:24:15Z</time>
      </trkpt>
      <trkpt lat="48.36291" lon="2.99626">
        <ele>66.972763061523</ele>
        <time>2017-03-05T14:24:41Z</time>
      </trkpt>
      <trkpt lat="48.36298" lon="2.99512">
        <ele>68.694602966309</ele>
        <time>2017-03-05T14:25:16Z</time>
      </trkpt>
      <trkpt lat="48.36329" lon="2.99326">
        <ele>67.104751586914</ele>
        <time>2017-03-05T14:25:36Z</time>
      </trkpt>
      <trkpt lat="48.36329" lon="2.99326">
        <ele>67.104751586914</ele>
        <time>2017-03-05T14:26:10Z</time>
      </trkpt>
      <trkpt lat="48.3634" lon="2.99321">
        <ele>66.871734619141</ele>
        <time>2017-03-05T14:26:10Z</time>
      </trkpt>
      <trkpt lat="48.3634" lon="2.99317">
        <ele>66.813484191895</ele>
        <time>2017-03-05T14:26:13Z</time>
      </trkpt>
      <trkpt lat="48.3634" lon="2.99317">
        <ele>66.813484191895</ele>
        <time>2017-03-05T14:26:14Z</time>
      </trkpt>
      <trkpt lat="48.36339" lon="2.99303">
        <ele>66.683746337891</ele>
        <time>2017-03-05T14:26:14Z</time>
      </trkpt>
      <trkpt lat="48.36342" lon="2.99291">
        <ele>66.577766418457</ele>
        <time>2017-03-05T14:26:16Z</time>
      </trkpt>
      <trkpt lat="48.36352" lon="2.99246">
        <ele>66.079170227051</ele>
        <time>2017-03-05T14:26:18Z</time>
      </trkpt>
      <trkpt lat="48.36356" lon="2.99207">
        <ele>66.105690002441</ele>
        <time>2017-03-05T14:26:26Z</time>
      </trkpt>
      <trkpt lat="48.36361" lon="2.99047">
        <ele>63.811923980713</ele>
        <time>2017-03-05T14:26:33Z</time>
      </trkpt>
      <trkpt lat="48.3636" lon="2.99029">
        <ele>63.430721282959</ele>
        <time>2017-03-05T14:27:01Z</time>
      </trkpt>
      <trkpt lat="48.36359" lon="2.98993">
        <ele>62.220676422119</ele>
        <time>2017-03-05T14:27:04Z</time>
      </trkpt>
      <trkpt lat="48.36363" lon="2.98935">
        <ele>60.473648071289</ele>
        <time>2017-03-05T14:27:10Z</time>
      </trkpt>
      <trkpt lat="48.36359" lon="2.98908">
        <ele>60.065380096436</ele>
        <time>2017-03-05T14:27:20Z</time>
      </trkpt>
      <trkpt lat="48.36343" lon="2.98871">
        <ele>59.924480438232</ele>
        <time>2017-03-05T14:27:25Z</time>
      </trkpt>
      <trkpt lat="48.36337" lon="2.98867">
        <ele>60.040988922119</ele>
        <time>2017-03-05T14:27:33Z</time>
      </trkpt>
      <trkpt lat="48.36322" lon="2.98864">
        <ele>60.434204101562</ele>
        <time>2017-03-05T14:27:35Z</time>
      </trkpt>
      <trkpt lat="48.36321" lon="2.98861">
        <ele>60.419639587402</ele>
        <time>2017-03-05T14:27:39Z</time>
      </trkpt>
      <trkpt lat="48.36351" lon="2.98821">
        <ele>59.163860321045</ele>
        <time>2017-03-05T14:27:40Z</time>
      </trkpt>
      <trkpt lat="48.36361" lon="2.98816">
        <ele>58.991954803467</ele>
        <time>2017-03-05T14:27:51Z</time>
      </trkpt>
      <trkpt lat="48.36376" lon="2.98813">
        <ele>58.704776763916</ele>
        <time>2017-03-05T14:27:54Z</time>
      </trkpt>
      <trkpt lat="48.36443" lon="2.98812">
        <ele>55.861354827881</ele>
        <time>2017-03-05T14:27:58Z</time>
      </trkpt>
      <trkpt lat="48.36454" lon="2.98809">
        <ele>55.388290405273</ele>
        <time>2017-03-05T14:28:16Z</time>
      </trkpt>
      <trkpt lat="48.36463" lon="2.98802">
        <ele>55.050563812256</ele>
        <time>2017-03-05T14:28:19Z</time>
      </trkpt>
      <trkpt lat="48.36468" lon="2.98788">
        <ele>54.97354888916</ele>
        <time>2017-03-05T14:28:22Z</time>
      </trkpt>
      <trkpt lat="48.36471" lon="2.98745">
        <ele>55.143592834473</ele>
        <time>2017-03-05T14:28:25Z</time>
      </trkpt>
      <trkpt lat="48.36471" lon="2.98644">
        <ele>54.60799407959</ele>
        <time>2017-03-05T14:28:33Z</time>
      </trkpt>
      <trkpt lat="48.36468" lon="2.98562">
        <ele>54.48876953125</ele>
        <time>2017-03-05T14:28:51Z</time>
      </trkpt>
      <trkpt lat="48.36464" lon="2.98501">
        <ele>53.985126495361</ele>
        <time>2017-03-05T14:29:06Z</time>
      </trkpt>
      <trkpt lat="48.36465" lon="2.98475">
        <ele>53.7646484375</ele>
        <time>2017-03-05T14:29:17Z</time>
      </trkpt>
      <trkpt lat="48.36465" lon="2.98475">
        <ele>53.7646484375</ele>
        <time>2017-03-05T14:29:22Z</time>
      </trkpt>
      <trkpt lat="48.36464" lon="2.98501">
        <ele>53.985126495361</ele>
        <time>2017-03-05T14:29:22Z</time>
      </trkpt>
      <trkpt lat="48.36468" lon="2.98562">
        <ele>54.48876953125</ele>
        <time>2017-03-05T14:29:27Z</time>
      </trkpt>
      <trkpt lat="48.36471" lon="2.98644">
        <ele>54.60799407959</ele>
        <time>2017-03-05T14:29:38Z</time>
      </trkpt>
      <trkpt lat="48.36471" lon="2.98745">
        <ele>55.143592834473</ele>
        <time>2017-03-05T14:29:53Z</time>
      </trkpt>
      <trkpt lat="48.36468" lon="2.98788">
        <ele>54.97354888916</ele>
        <time>2017-03-05T14:30:11Z</time>
      </trkpt>
      <trkpt lat="48.36463" lon="2.98802">
        <ele>55.050563812256</ele>
        <time>2017-03-05T14:30:19Z</time>
      </trkpt>
      <trkpt lat="48.3646" lon="2.98805">
        <ele>55.156921386719</ele>
        <time>2017-03-05T14:30:22Z</time>
      </trkpt>
      <trkpt lat="48.36461" lon="2.98813">
        <ele>54.999794006348</ele>
        <time>2017-03-05T14:30:23Z</time>
      </trkpt>
      <trkpt lat="48.36461" lon="2.9889">
        <ele>54.79460144043</ele>
        <time>2017-03-05T14:30:24Z</time>
      </trkpt>
      <trkpt lat="48.36458" lon="2.98919">
        <ele>55.233108520508</ele>
        <time>2017-03-05T14:30:38Z</time>
      </trkpt>
      <trkpt lat="48.36451" lon="2.98951">
        <ele>56.098175048828</ele>
        <time>2017-03-05T14:30:43Z</time>
      </trkpt>
      <trkpt lat="48.36448" lon="2.98964">
        <ele>56.462265014648</ele>
        <time>2017-03-05T14:30:49Z</time>
      </trkpt>
      <trkpt lat="48.36437" lon="2.98983">
        <ele>57.267875671387</ele>
        <time>2017-03-05T14:30:51Z</time>
      </trkpt>
      <trkpt lat="48.36436" lon="2.98989">
        <ele>57.385238647461</ele>
        <time>2017-03-05T14:30:55Z</time>
      </trkpt>
      <trkpt lat="48.36436" lon="2.98989">
        <ele>57.385238647461</ele>
        <time>2017-03-05T14:30:56Z</time>
      </trkpt>
      <trkpt lat="48.36435" lon="2.9901">
        <ele>57.643211364746</ele>
        <time>2017-03-05T14:30:56Z</time>
      </trkpt>
      <trkpt lat="48.36443" lon="2.99118">
        <ele>58.562370300293</ele>
        <time>2017-03-05T14:31:00Z</time>
      </trkpt>
      <trkpt lat="48.3645" lon="2.99152">
        <ele>58.918190002441</ele>
        <time>2017-03-05T14:31:19Z</time>
      </trkpt>
      <trkpt lat="48.36471" lon="2.99222">
        <ele>58.29398727417</ele>
        <time>2017-03-05T14:31:25Z</time>
      </trkpt>
      <trkpt lat="48.36475" lon="2.9924">
        <ele>58.092319488525</ele>
        <time>2017-03-05T14:31:39Z</time>
      </trkpt>
      <trkpt lat="48.36475" lon="2.9924">
        <ele>58.092319488525</ele>
        <time>2017-03-05T14:31:42Z</time>
      </trkpt>
      <trkpt lat="48.36444" lon="2.99261">
        <ele>60.950057983398</ele>
        <time>2017-03-05T14:31:42Z</time>
      </trkpt>
      <trkpt lat="48.36406" lon="2.99283">
        <ele>64.120185852051</ele>
        <time>2017-03-05T14:31:51Z</time>
      </trkpt>
      <trkpt lat="48.36336" lon="2.99323">
        <ele>66.959121704102</ele>
        <time>2017-03-05T14:32:02Z</time>
      </trkpt>
      <trkpt lat="48.36329" lon="2.99326">
        <ele>67.104751586914</ele>
        <time>2017-03-05T14:32:22Z</time>
      </trkpt>
      <trkpt lat="48.36328" lon="2.99338">
        <ele>67.294082641602</ele>
        <time>2017-03-05T14:32:24Z</time>
      </trkpt>
      <trkpt lat="48.36328" lon="2.99338">
        <ele>67.294082641602</ele>
        <time>2017-03-05T14:32:26Z</time>
      </trkpt>
      <trkpt lat="48.36296" lon="2.99522">
        <ele>68.560188293457</ele>
        <time>2017-03-05T14:32:26Z</time>
      </trkpt>
      <trkpt lat="48.36284" lon="2.99752">
        <ele>66</ele>
        <time>2017-03-05T14:33:00Z</time>
      </trkpt>
      <trkpt lat="48.36274" lon="2.99878">
        <ele>66.055168151855</ele>
        <time>2017-03-05T14:33:41Z</time>
      </trkpt>
      <trkpt lat="48.36256" lon="3.00071">
        <ele>62.973907470703</ele>
        <time>2017-03-05T14:34:04Z</time>
      </trkpt>
      <trkpt lat="48.36232" lon="3.0033">
        <ele>60.98657989502</ele>
        <time>2017-03-05T14:34:39Z</time>
      </trkpt>
      <trkpt lat="48.36232" lon="3.00382">
        <ele>61.261775970459</ele>
        <time>2017-03-05T14:35:25Z</time>
      </trkpt>
      <trkpt lat="48.36238" lon="3.0045">
        <ele>61.978679656982</ele>
        <time>2017-03-05T14:35:34Z</time>
      </trkpt>
      <trkpt lat="48.36241" lon="3.00517">
        <ele>63.897563934326</ele>
        <time>2017-03-05T14:35:46Z</time>
      </trkpt>
      <trkpt lat="48.36236" lon="3.00585">
        <ele>65</ele>
        <time>2017-03-05T14:35:58Z</time>
      </trkpt>
      <trkpt lat="48.36231" lon="3.00611">
        <ele>65</ele>
        <time>2017-03-05T14:36:10Z</time>
      </trkpt>
      <trkpt lat="48.36203" lon="3.00686">
        <ele>63.702285766602</ele>
        <time>2017-03-05T14:36:15Z</time>
      </trkpt>
      <trkpt lat="48.36115" lon="3.00912">
        <ele>63.523193359375</ele>
        <time>2017-03-05T14:36:30Z</time>
      </trkpt>
      <trkpt lat="48.36108" lon="3.00934">
        <ele>63.57287979126</ele>
        <time>2017-03-05T14:37:16Z</time>
      </trkpt>
      <trkpt lat="48.36101" lon="3.00964">
        <ele>63.573246002197</ele>
        <time>2017-03-05T14:37:20Z</time>
      </trkpt>
      <trkpt lat="48.36093" lon="3.00993">
        <ele>63.4817237854</ele>
        <time>2017-03-05T14:37:26Z</time>
      </trkpt>
      <trkpt lat="48.36067" lon="3.01059">
        <ele>63.029781341553</ele>
        <time>2017-03-05T14:37:32Z</time>
      </trkpt>
      <trkpt lat="48.36037" lon="3.01128">
        <ele>61.62340927124</ele>
        <time>2017-03-05T14:37:46Z</time>
      </trkpt>
      <trkpt lat="48.36021" lon="3.0117">
        <ele>60.339500427246</ele>
        <time>2017-03-05T14:38:01Z</time>
      </trkpt>
      <trkpt lat="48.36014" lon="3.01223">
        <ele>60.441444396973</ele>
        <time>2017-03-05T14:38:10Z</time>
      </trkpt>
      <trkpt lat="48.36011" lon="3.01249">
        <ele>60.220958709717</ele>
        <time>2017-03-05T14:38:20Z</time>
      </trkpt>
      <trkpt lat="48.36011" lon="3.01249">
        <ele>60.220958709717</ele>
        <time>2017-03-05T14:38:25Z</time>
      </trkpt>
      <trkpt lat="48.36008" lon="3.01278">
        <ele>59.889072418213</ele>
        <time>2017-03-05T14:38:25Z</time>
      </trkpt>
      <trkpt lat="48.3602" lon="3.01282">
        <ele>59.401763916016</ele>
        <time>2017-03-05T14:38:30Z</time>
      </trkpt>
      <trkpt lat="48.36027" lon="3.01284">
        <ele>59.105953216553</ele>
        <time>2017-03-05T14:38:33Z</time>
      </trkpt>
      <trkpt lat="48.36052" lon="3.01283">
        <ele>58.160667419434</ele>
        <time>2017-03-05T14:38:35Z</time>
      </trkpt>
      <trkpt lat="48.36072" lon="3.01279">
        <ele>57.40336227417</ele>
        <time>2017-03-05T14:38:42Z</time>
      </trkpt>
      <trkpt lat="48.36085" lon="3.01281">
        <ele>56.777130126953</ele>
        <time>2017-03-05T14:38:47Z</time>
      </trkpt>
      <trkpt lat="48.36089" lon="3.01286">
        <ele>56.456733703613</ele>
        <time>2017-03-05T14:38:50Z</time>
      </trkpt>
      <trkpt lat="48.36087" lon="3.01296">
        <ele>56.252841949463</ele>
        <time>2017-03-05T14:38:51Z</time>
      </trkpt>
      <trkpt lat="48.36024" lon="3.01472">
        <ele>55.329887390137</ele>
        <time>2017-03-05T14:38:53Z</time>
      </trkpt>
      <trkpt lat="48.35996" lon="3.01559">
        <ele>55.729064941406</ele>
        <time>2017-03-05T14:39:28Z</time>
      </trkpt>
      <trkpt lat="48.3594" lon="3.01715">
        <ele>55.49186706543</ele>
        <time>2017-03-05T14:39:45Z</time>
      </trkpt>
      <trkpt lat="48.35933" lon="3.01712">
        <ele>55.864456176758</ele>
        <time>2017-03-05T14:40:16Z</time>
      </trkpt>
      <trkpt lat="48.35933" lon="3.01712">
        <ele>55.864456176758</ele>
        <time>2017-03-05T14:40:18Z</time>
      </trkpt>
      <trkpt lat="48.3592" lon="3.01705">
        <ele>56.699813842773</ele>
        <time>2017-03-05T14:40:18Z</time>
      </trkpt>
      <trkpt lat="48.35903" lon="3.01705">
        <ele>57.707458496094</ele>
        <time>2017-03-05T14:40:22Z</time>
      </trkpt>
      <trkpt lat="48.35887" lon="3.01713">
        <ele>59.004947662354</ele>
        <time>2017-03-05T14:40:27Z</time>
      </trkpt>
      <trkpt lat="48.35874" lon="3.01725">
        <ele>59.894100189209</ele>
        <time>2017-03-05T14:40:32Z</time>
      </trkpt>
      <trkpt lat="48.35863" lon="3.01733">
        <ele>60.677604675293</ele>
        <time>2017-03-05T14:40:36Z</time>
      </trkpt>
      <trkpt lat="48.35847" lon="3.01738">
        <ele>62.028335571289</ele>
        <time>2017-03-05T14:40:39Z</time>
      </trkpt>
      <trkpt lat="48.3583" lon="3.01734">
        <ele>63.239017486572</ele>
        <time>2017-03-05T14:40:43Z</time>
      </trkpt>
      <trkpt lat="48.35815" lon="3.01724">
        <ele>63.935218811035</ele>
        <time>2017-03-05T14:40:48Z</time>
      </trkpt>
      <trkpt lat="48.35789" lon="3.01711">
        <ele>64.737586975098</ele>
        <time>2017-03-05T14:40:52Z</time>
      </trkpt>
      <trkpt lat="48.35761" lon="3.01704">
        <ele>65.117034912109</ele>
        <time>2017-03-05T14:40:59Z</time>
      </trkpt>
      <trkpt lat="48.35748" lon="3.01707">
        <ele>65.073341369629</ele>
        <time>2017-03-05T14:41:07Z</time>
      </trkpt>
      <trkpt lat="48.35736" lon="3.01719">
        <ele>64.948287963867</ele>
        <time>2017-03-05T14:41:11Z</time>
      </trkpt>
      <trkpt lat="48.35721" lon="3.01736">
        <ele>64.898292541504</ele>
        <time>2017-03-05T14:41:15Z</time>
      </trkpt>
      <trkpt lat="48.35708" lon="3.01742">
        <ele>64.955444335938</ele>
        <time>2017-03-05T14:41:20Z</time>
      </trkpt>
      <trkpt lat="48.3569" lon="3.01738">
        <ele>65.09952545166</ele>
        <time>2017-03-05T14:41:24Z</time>
      </trkpt>
      <trkpt lat="48.35564" lon="3.01694">
        <ele>66.995040893555</ele>
        <time>2017-03-05T14:41:29Z</time>
      </trkpt>
      <trkpt lat="48.3529" lon="3.016">
        <ele>69.985458374023</ele>
        <time>2017-03-05T14:42:04Z</time>
      </trkpt>
      <trkpt lat="48.35146" lon="3.01557">
        <ele>74.423095703125</ele>
        <time>2017-03-05T14:43:19Z</time>
      </trkpt>
      <trkpt lat="48.35087" lon="3.01538">
        <ele>76.418304443359</ele>
        <time>2017-03-05T14:43:58Z</time>
      </trkpt>
      <trkpt lat="48.35087" lon="3.01538">
        <ele>76.418304443359</ele>
        <time>2017-03-05T14:44:14Z</time>
      </trkpt>
      <trkpt lat="48.35062" lon="3.01526">
        <ele>77.104217529297</ele>
        <time>2017-03-05T14:44:14Z</time>
      </trkpt>
      <trkpt lat="48.35058" lon="3.01542">
        <ele>77.031257629395</ele>
        <time>2017-03-05T14:44:21Z</time>
      </trkpt>
      <trkpt lat="48.35032" lon="3.01532">
        <ele>77.645645141602</ele>
        <time>2017-03-05T14:44:24Z</time>
      </trkpt>
      <trkpt lat="48.34911" lon="3.01507">
        <ele>79.505043029785</ele>
        <time>2017-03-05T14:44:31Z</time>
      </trkpt>
      <trkpt lat="48.34808" lon="3.01483">
        <ele>80.005088806152</ele>
        <time>2017-03-05T14:45:04Z</time>
      </trkpt>
      <trkpt lat="48.34717" lon="3.01464">
        <ele>81.788841247559</ele>
        <time>2017-03-05T14:45:32Z</time>
      </trkpt>
      <trkpt lat="48.34649" lon="3.01451">
        <ele>83.198387145996</ele>
        <time>2017-03-05T14:45:57Z</time>
      </trkpt>
      <trkpt lat="48.3463" lon="3.01447">
        <ele>83.140129089355</ele>
        <time>2017-03-05T14:46:15Z</time>
      </trkpt>
      <trkpt lat="48.3463" lon="3.01447">
        <ele>83.140129089355</ele>
        <time>2017-03-05T14:46:20Z</time>
      </trkpt>
      <trkpt lat="48.34627" lon="3.01446">
        <ele>83.125564575195</ele>
        <time>2017-03-05T14:46:20Z</time>
      </trkpt>
      <trkpt lat="48.34608" lon="3.01506">
        <ele>83.999382019043</ele>
        <time>2017-03-05T14:46:21Z</time>
      </trkpt>
      <trkpt lat="48.34585" lon="3.0158">
        <ele>84.505531311035</ele>
        <time>2017-03-05T14:46:33Z</time>
      </trkpt>
      <trkpt lat="48.34579" lon="3.01607">
        <ele>84.680290222168</ele>
        <time>2017-03-05T14:46:48Z</time>
      </trkpt>
      <trkpt lat="48.34557" lon="3.01681">
        <ele>84.959106445312</ele>
        <time>2017-03-05T14:46:53Z</time>
      </trkpt>
      <trkpt lat="48.34554" lon="3.01687">
        <ele>84.961006164551</ele>
        <time>2017-03-05T14:47:07Z</time>
      </trkpt>
      <trkpt lat="48.34551" lon="3.01699">
        <ele>84.889923095703</ele>
        <time>2017-03-05T14:47:08Z</time>
      </trkpt>
      <trkpt lat="48.34546" lon="3.01736">
        <ele>84.820739746094</ele>
        <time>2017-03-05T14:47:10Z</time>
      </trkpt>
      <trkpt lat="48.34543" lon="3.01778">
        <ele>84.864433288574</ele>
        <time>2017-03-05T14:47:17Z</time>
      </trkpt>
      <trkpt lat="48.34514" lon="3.01849">
        <ele>85</ele>
        <time>2017-03-05T14:47:25Z</time>
      </trkpt>
      <trkpt lat="48.3451" lon="3.01856">
        <ele>85.096626281738</ele>
        <time>2017-03-05T14:47:40Z</time>
      </trkpt>
      <trkpt lat="48.34498" lon="3.01862">
        <ele>85.184005737305</ele>
        <time>2017-03-05T14:47:42Z</time>
      </trkpt>
      <trkpt lat="48.34473" lon="3.01876">
        <ele>85.387893676758</ele>
        <time>2017-03-05T14:47:45Z</time>
      </trkpt>
      <trkpt lat="48.34462" lon="3.0189">
        <ele>85.653861999512</ele>
        <time>2017-03-05T14:47:52Z</time>
      </trkpt>
      <trkpt lat="48.34452" lon="3.01923">
        <ele>86.189720153809</ele>
        <time>2017-03-05T14:47:56Z</time>
      </trkpt>
      <trkpt lat="48.34435" lon="3.01955">
        <ele>86.437294006348</ele>
        <time>2017-03-05T14:48:02Z</time>
      </trkpt>
      <trkpt lat="48.34419" lon="3.0198">
        <ele>86.670310974121</ele>
        <time>2017-03-05T14:48:09Z</time>
      </trkpt>
      <trkpt lat="48.34354" lon="3.02064">
        <ele>87.92847442627</ele>
        <time>2017-03-05T14:48:15Z</time>
      </trkpt>
      <trkpt lat="48.34347" lon="3.02081">
        <ele>88.42512512207</ele>
        <time>2017-03-05T14:48:38Z</time>
      </trkpt>
      <trkpt lat="48.34346" lon="3.02079">
        <ele>88.45288848877</ele>
        <time>2017-03-05T14:48:42Z</time>
      </trkpt>
      <trkpt lat="48.34322" lon="3.02034">
        <ele>89.555046081543</ele>
        <time>2017-03-05T14:48:42Z</time>
      </trkpt>
      <trkpt lat="48.34306" lon="3.0201">
        <ele>91.003234863281</ele>
        <time>2017-03-05T14:48:52Z</time>
      </trkpt>
      <trkpt lat="48.34293" lon="3.0199">
        <ele>92.056266784668</ele>
        <time>2017-03-05T14:48:58Z</time>
      </trkpt>
      <trkpt lat="48.34286" lon="3.01974">
        <ele>92.868141174316</ele>
        <time>2017-03-05T14:49:03Z</time>
      </trkpt>
      <trkpt lat="48.34277" lon="3.01954">
        <ele>94.133148193359</ele>
        <time>2017-03-05T14:49:06Z</time>
      </trkpt>
      <trkpt lat="48.34266" lon="3.01936">
        <ele>95.717994689941</ele>
        <time>2017-03-05T14:49:10Z</time>
      </trkpt>
      <trkpt lat="48.3425" lon="3.01919">
        <ele>98.285438537598</ele>
        <time>2017-03-05T14:49:14Z</time>
      </trkpt>
      <trkpt lat="48.34237" lon="3.01906">
        <ele>100.32779693604</ele>
        <time>2017-03-05T14:49:19Z</time>
      </trkpt>
      <trkpt lat="48.34209" lon="3.01864">
        <ele>104.50012207031</ele>
        <time>2017-03-05T14:49:23Z</time>
      </trkpt>
      <trkpt lat="48.3417" lon="3.01815">
        <ele>108.77955627441</ele>
        <time>2017-03-05T14:49:34Z</time>
      </trkpt>
      <trkpt lat="48.34157" lon="3.01803">
        <ele>109.74547576904</ele>
        <time>2017-03-05T14:49:48Z</time>
      </trkpt>
      <trkpt lat="48.34144" lon="3.01805">
        <ele>110.85441589355</ele>
        <time>2017-03-05T14:49:52Z</time>
      </trkpt>
      <trkpt lat="48.34113" lon="3.01818">
        <ele>113.46671295166</ele>
        <time>2017-03-05T14:49:55Z</time>
      </trkpt>
      <trkpt lat="48.34113" lon="3.01818">
        <ele>113.46671295166</ele>
        <time>2017-03-05T14:50:04Z</time>
      </trkpt>
      <trkpt lat="48.34008" lon="3.0187">
        <ele>119.814453125</ele>
        <time>2017-03-05T14:50:04Z</time>
      </trkpt>
      <trkpt lat="48.33958" lon="3.01904">
        <ele>122.28863525391</ele>
        <time>2017-03-05T14:50:34Z</time>
      </trkpt>
      <trkpt lat="48.33922" lon="3.01931">
        <ele>122.56098175049</ele>
        <time>2017-03-05T14:50:49Z</time>
      </trkpt>
      <trkpt lat="48.33922" lon="3.01935">
        <ele>122.67749023438</ele>
        <time>2017-03-05T14:51:00Z</time>
      </trkpt>
      <trkpt lat="48.33922" lon="3.01935">
        <ele>122.67749023438</ele>
        <time>2017-03-05T14:51:01Z</time>
      </trkpt>
      <trkpt lat="48.33916" lon="3.01818">
        <ele>118.00228881836</ele>
        <time>2017-03-05T14:51:01Z</time>
      </trkpt>
      <trkpt lat="48.33919" lon="3.01785">
        <ele>118.00299835205</ele>
        <time>2017-03-05T14:51:22Z</time>
      </trkpt>
      <trkpt lat="48.33925" lon="3.01738">
        <ele>118</ele>
        <time>2017-03-05T14:51:28Z</time>
      </trkpt>
      <trkpt lat="48.33934" lon="3.01676">
        <ele>118.77005004883</ele>
        <time>2017-03-05T14:51:36Z</time>
      </trkpt>
      <trkpt lat="48.33943" lon="3.01598">
        <ele>119.60329437256</ele>
        <time>2017-03-05T14:51:47Z</time>
      </trkpt>
      <trkpt lat="48.33944" lon="3.01566">
        <ele>119.5626449585</ele>
        <time>2017-03-05T14:52:01Z</time>
      </trkpt>
      <trkpt lat="48.33944" lon="3.01566">
        <ele>119.5626449585</ele>
        <time>2017-03-05T14:52:07Z</time>
      </trkpt>
      <trkpt lat="48.33948" lon="3.0155">
        <ele>119.03881072998</ele>
        <time>2017-03-05T14:52:07Z</time>
      </trkpt>
      <trkpt lat="48.33964" lon="3.01522">
        <ele>117.89482116699</ele>
        <time>2017-03-05T14:52:10Z</time>
      </trkpt>
      <trkpt lat="48.33999" lon="3.0145">
        <ele>115.71868896484</ele>
        <time>2017-03-05T14:52:17Z</time>
      </trkpt>
      <trkpt lat="48.34065" lon="3.01361">
        <ele>113.47743988037</ele>
        <time>2017-03-05T14:52:33Z</time>
      </trkpt>
      <trkpt lat="48.34078" lon="3.01346">
        <ele>112.9094619751</ele>
        <time>2017-03-05T14:52:57Z</time>
      </trkpt>
      <trkpt lat="48.34087" lon="3.01338">
        <ele>112.51624298096</ele>
        <time>2017-03-05T14:53:01Z</time>
      </trkpt>
      <trkpt lat="48.34099" lon="3.0132">
        <ele>111.99195861816</ele>
        <time>2017-03-05T14:53:04Z</time>
      </trkpt>
      <trkpt lat="48.34114" lon="3.01278">
        <ele>111.0154876709</ele>
        <time>2017-03-05T14:53:09Z</time>
      </trkpt>
      <trkpt lat="48.34119" lon="3.01256">
        <ele>110.47663879395</ele>
        <time>2017-03-05T14:53:17Z</time>
      </trkpt>
      <trkpt lat="48.34146" lon="3.01244">
        <ele>108.99220275879</ele>
        <time>2017-03-05T14:53:21Z</time>
      </trkpt>
      <trkpt lat="48.34171" lon="3.01241">
        <ele>107.78519439697</ele>
        <time>2017-03-05T14:53:29Z</time>
      </trkpt>
      <trkpt lat="48.34195" lon="3.01245">
        <ele>106.53191375732</ele>
        <time>2017-03-05T14:53:36Z</time>
      </trkpt>
      <trkpt lat="48.34209" lon="3.01242">
        <ele>105.7600402832</ele>
        <time>2017-03-05T14:53:42Z</time>
      </trkpt>
      <trkpt lat="48.34239" lon="3.01223">
        <ele>104.04491424561</ele>
        <time>2017-03-05T14:53:46Z</time>
      </trkpt>
      <trkpt lat="48.34277" lon="3.01215">
        <ele>101.51551818848</ele>
        <time>2017-03-05T14:53:55Z</time>
      </trkpt>
      <trkpt lat="48.34289" lon="3.01214">
        <ele>100.67520141602</ele>
        <time>2017-03-05T14:54:05Z</time>
      </trkpt>
      <trkpt lat="48.34304" lon="3.01217">
        <ele>99.6533203125</ele>
        <time>2017-03-05T14:54:08Z</time>
      </trkpt>
      <trkpt lat="48.34332" lon="3.01238">
        <ele>97.527717590332</ele>
        <time>2017-03-05T14:54:12Z</time>
      </trkpt>
      <trkpt lat="48.34343" lon="3.01245">
        <ele>96.464576721191</ele>
        <time>2017-03-05T14:54:20Z</time>
      </trkpt>
      <trkpt lat="48.34348" lon="3.01246">
        <ele>96.013107299805</ele>
        <time>2017-03-05T14:54:23Z</time>
      </trkpt>
      <trkpt lat="48.34348" lon="3.01246">
        <ele>96.013107299805</ele>
        <time>2017-03-05T14:54:24Z</time>
      </trkpt>
      <trkpt lat="48.34353" lon="3.01246">
        <ele>95.576202392578</ele>
        <time>2017-03-05T14:54:24Z</time>
      </trkpt>
      <trkpt lat="48.3435" lon="3.01241">
        <ele>95.911163330078</ele>
        <time>2017-03-05T14:54:25Z</time>
      </trkpt>
      <trkpt lat="48.34341" lon="3.01219">
        <ele>96.837631225586</ele>
        <time>2017-03-05T14:54:26Z</time>
      </trkpt>
      <trkpt lat="48.34335" lon="3.01168">
        <ele>97.361923217773</ele>
        <time>2017-03-05T14:54:31Z</time>
      </trkpt>
      <trkpt lat="48.3433" lon="3.01157">
        <ele>97.965423583984</ele>
        <time>2017-03-05T14:54:40Z</time>
      </trkpt>
      <trkpt lat="48.34322" lon="3.01154">
        <ele>98.57536315918</ele>
        <time>2017-03-05T14:54:42Z</time>
      </trkpt>
      <trkpt lat="48.34213" lon="3.01158">
        <ele>104.56604003906</ele>
        <time>2017-03-05T14:54:44Z</time>
      </trkpt>
      <trkpt lat="48.34189" lon="3.01158">
        <ele>105.8309173584</ele>
        <time>2017-03-05T14:55:13Z</time>
      </trkpt>
      <trkpt lat="48.34185" lon="3.01157">
        <ele>105.89344787598</ele>
        <time>2017-03-05T14:55:19Z</time>
      </trkpt>
      <trkpt lat="48.34185" lon="3.01157">
        <ele>105.89344787598</ele>
        <time>2017-03-05T14:55:20Z</time>
      </trkpt>
      <trkpt lat="48.34181" lon="3.01152">
        <ele>105.76192474365</ele>
        <time>2017-03-05T14:55:20Z</time>
      </trkpt>
      <trkpt lat="48.34173" lon="3.01129">
        <ele>104.78422546387</ele>
        <time>2017-03-05T14:55:21Z</time>
      </trkpt>
      <trkpt lat="48.34113" lon="3.00857">
        <ele>94.418212890625</ele>
        <time>2017-03-05T14:55:26Z</time>
      </trkpt>
      <trkpt lat="48.341" lon="3.00748">
        <ele>89.92041015625</ele>
        <time>2017-03-05T14:56:17Z</time>
      </trkpt>
      <trkpt lat="48.3408" lon="3.0053">
        <ele>84.654983520508</ele>
        <time>2017-03-05T14:56:37Z</time>
      </trkpt>
      <trkpt lat="48.3408" lon="3.00527">
        <ele>84.584754943848</ele>
        <time>2017-03-05T14:57:16Z</time>
      </trkpt>
      <trkpt lat="48.34066" lon="3.00526">
        <ele>84.505706787109</ele>
        <time>2017-03-05T14:57:17Z</time>
      </trkpt>
      <trkpt lat="48.33969" lon="3.00554">
        <ele>87.270088195801</ele>
        <time>2017-03-05T14:57:21Z</time>
      </trkpt>
      <trkpt lat="48.33928" lon="3.00563">
        <ele>89.863578796387</ele>
        <time>2017-03-05T14:57:47Z</time>
      </trkpt>
      <trkpt lat="48.33919" lon="3.00559">
        <ele>90.233711242676</ele>
        <time>2017-03-05T14:57:58Z</time>
      </trkpt>
      <trkpt lat="48.3389" lon="3.00509">
        <ele>91.710792541504</ele>
        <time>2017-03-05T14:58:01Z</time>
      </trkpt>
      <trkpt lat="48.33881" lon="3.00499">
        <ele>92.198974609375</ele>
        <time>2017-03-05T14:58:13Z</time>
      </trkpt>
      <trkpt lat="48.33875" lon="3.00496">
        <ele>92.598731994629</ele>
        <time>2017-03-05T14:58:16Z</time>
      </trkpt>
      <trkpt lat="48.33875" lon="3.00496">
        <ele>92.598731994629</ele>
        <time>2017-03-05T14:58:18Z</time>
      </trkpt>
      <trkpt lat="48.33881" lon="3.00499">
        <ele>92.198974609375</ele>
        <time>2017-03-05T14:58:18Z</time>
      </trkpt>
      <trkpt lat="48.33879" lon="3.00491">
        <ele>92.122978210449</ele>
        <time>2017-03-05T14:58:20Z</time>
      </trkpt>
      <trkpt lat="48.33852" lon="3.00451">
        <ele>92.231269836426</ele>
        <time>2017-03-05T14:58:22Z</time>
      </trkpt>
      <trkpt lat="48.3383" lon="3.00422">
        <ele>91.451942443848</ele>
        <time>2017-03-05T14:58:32Z</time>
      </trkpt>
      <trkpt lat="48.3382" lon="3.00405">
        <ele>90.703758239746</ele>
        <time>2017-03-05T14:58:40Z</time>
      </trkpt>
      <trkpt lat="48.33808" lon="3.00372">
        <ele>89.81266784668</ele>
        <time>2017-03-05T14:58:44Z</time>
      </trkpt>
      <trkpt lat="48.33777" lon="3.00255">
        <ele>86.580863952637</ele>
        <time>2017-03-05T14:58:51Z</time>
      </trkpt>
      <trkpt lat="48.33747" lon="3.00177">
        <ele>85.101440429688</ele>
        <time>2017-03-05T14:59:13Z</time>
      </trkpt>
      <trkpt lat="48.33735" lon="3.00137">
        <ele>84.693656921387</ele>
        <time>2017-03-05T14:59:29Z</time>
      </trkpt>
      <trkpt lat="48.3373" lon="3.00093">
        <ele>84.125679016113</ele>
        <time>2017-03-05T14:59:37Z</time>
      </trkpt>
      <trkpt lat="48.33726" lon="3.00061">
        <ele>83.662284851074</ele>
        <time>2017-03-05T14:59:45Z</time>
      </trkpt>
      <trkpt lat="48.33708" lon="3.00018">
        <ele>82.67440032959</ele>
        <time>2017-03-05T14:59:51Z</time>
      </trkpt>
      <trkpt lat="48.33652" lon="2.99901">
        <ele>80.525245666504</ele>
        <time>2017-03-05T15:00:00Z</time>
      </trkpt>
      <trkpt lat="48.33656" lon="2.99904">
        <ele>80.523025512695</ele>
        <time>2017-03-05T15:00:26Z</time>
      </trkpt>
      <trkpt lat="48.33656" lon="2.99904">
        <ele>80.523025512695</ele>
        <time>2017-03-05T15:00:27Z</time>
      </trkpt>
      <trkpt lat="48.33606" lon="2.99865">
        <ele>81.172904968262</ele>
        <time>2017-03-05T15:00:27Z</time>
      </trkpt>
      <trkpt lat="48.33568" lon="2.99835">
        <ele>82.106307983398</ele>
        <time>2017-03-05T15:00:42Z</time>
      </trkpt>
      <trkpt lat="48.33539" lon="2.99816">
        <ele>82.674407958984</ele>
        <time>2017-03-05T15:00:53Z</time>
      </trkpt>
      <trkpt lat="48.33502" lon="2.998">
        <ele>83.179054260254</ele>
        <time>2017-03-05T15:01:01Z</time>
      </trkpt>
      <trkpt lat="48.33477" lon="2.99799">
        <ele>83.528579711914</ele>
        <time>2017-03-05T15:01:11Z</time>
      </trkpt>
      <trkpt lat="48.33463" lon="2.99795">
        <ele>83.674209594727</ele>
        <time>2017-03-05T15:01:18Z</time>
      </trkpt>
      <trkpt lat="48.33293" lon="2.99939">
        <ele>87.684906005859</ele>
        <time>2017-03-05T15:01:22Z</time>
      </trkpt>
      <trkpt lat="48.33217" lon="3.00002">
        <ele>93.831336975098</ele>
        <time>2017-03-05T15:02:14Z</time>
      </trkpt>
      <trkpt lat="48.332" lon="3.00016">
        <ele>95.295768737793</ele>
        <time>2017-03-05T15:02:37Z</time>
      </trkpt>
      <trkpt lat="48.33188" lon="3.00023">
        <ele>96.239234924316</ele>
        <time>2017-03-05T15:02:42Z</time>
      </trkpt>
      <trkpt lat="48.33173" lon="3.00027">
        <ele>97.204658508301</ele>
        <time>2017-03-05T15:02:45Z</time>
      </trkpt>
      <trkpt lat="48.33164" lon="3.00026">
        <ele>97.600662231445</ele>
        <time>2017-03-05T15:02:49Z</time>
      </trkpt>
      <trkpt lat="48.3314" lon="3.00013">
        <ele>98.875518798828</ele>
        <time>2017-03-05T15:02:51Z</time>
      </trkpt>
      <trkpt lat="48.3313" lon="3.00006">
        <ele>99.510749816895</ele>
        <time>2017-03-05T15:02:58Z</time>
      </trkpt>
      <trkpt lat="48.33123" lon="2.99998">
        <ele>99.901596069336</ele>
        <time>2017-03-05T15:03:01Z</time>
      </trkpt>
      <trkpt lat="48.33099" lon="2.99961">
        <ele>100.25421142578</ele>
        <time>2017-03-05T15:03:03Z</time>
      </trkpt>
      <trkpt lat="48.3309" lon="2.99956">
        <ele>100.79383850098</ele>
        <time>2017-03-05T15:03:12Z</time>
      </trkpt>
      <trkpt lat="48.33084" lon="2.99956">
        <ele>101.10614776611</ele>
        <time>2017-03-05T15:03:15Z</time>
      </trkpt>
      <trkpt lat="48.3307" lon="2.99978">
        <ele>103.01504516602</ele>
        <time>2017-03-05T15:03:17Z</time>
      </trkpt>
      <trkpt lat="48.33032" lon="3.00028">
        <ele>106.90985107422</ele>
        <time>2017-03-05T15:03:22Z</time>
      </trkpt>
      <trkpt lat="48.33026" lon="3.00032">
        <ele>107.42470550537</ele>
        <time>2017-03-05T15:03:35Z</time>
      </trkpt>
      <trkpt lat="48.33022" lon="3.00032">
        <ele>107.64490509033</ele>
        <time>2017-03-05T15:03:37Z</time>
      </trkpt>
      <trkpt lat="48.33018" lon="3.00026">
        <ele>107.55752563477</ele>
        <time>2017-03-05T15:03:38Z</time>
      </trkpt>
      <trkpt lat="48.33006" lon="3.00017">
        <ele>107.68859863281</ele>
        <time>2017-03-05T15:03:40Z</time>
      </trkpt>
      <trkpt lat="48.32994" lon="3.0002">
        <ele>108.34395599365</ele>
        <time>2017-03-05T15:03:44Z</time>
      </trkpt>
      <trkpt lat="48.32967" lon="3.00038">
        <ele>110.31003570557</ele>
        <time>2017-03-05T15:03:47Z</time>
      </trkpt>
      <trkpt lat="48.32928" lon="3.00064">
        <ele>112.7663269043</ele>
        <time>2017-03-05T15:03:55Z</time>
      </trkpt>
      <trkpt lat="48.32928" lon="3.00064">
        <ele>112.7663269043</ele>
        <time>2017-03-05T15:04:06Z</time>
      </trkpt>
      <trkpt lat="48.3292" lon="3.00068">
        <ele>113.08759307861</ele>
        <time>2017-03-05T15:04:06Z</time>
      </trkpt>
      <trkpt lat="48.32908" lon="3.00059">
        <ele>113.22958374023</ele>
        <time>2017-03-05T15:04:08Z</time>
      </trkpt>
      <trkpt lat="48.32858" lon="3.00001">
        <ele>114.26048278809</ele>
        <time>2017-03-05T15:04:12Z</time>
      </trkpt>
      <trkpt lat="48.32831" lon="2.99964">
        <ele>115.02688598633</ele>
        <time>2017-03-05T15:04:29Z</time>
      </trkpt>
      <trkpt lat="48.32782" lon="2.99887">
        <ele>115.72591400146</ele>
        <time>2017-03-05T15:04:39Z</time>
      </trkpt>
      <trkpt lat="48.32782" lon="2.99887">
        <ele>115.72591400146</ele>
        <time>2017-03-05T15:04:58Z</time>
      </trkpt>
      <trkpt lat="48.32723" lon="3.00206">
        <ele>119.26268005371</ele>
        <time>2017-03-05T15:04:58Z</time>
      </trkpt>
      <trkpt lat="48.32719" lon="3.00239">
        <ele>119.88304901123</ele>
        <time>2017-03-05T15:05:57Z</time>
      </trkpt>
      <trkpt lat="48.32719" lon="3.00239">
        <ele>119.88304901123</ele>
        <time>2017-03-05T15:06:03Z</time>
      </trkpt>
      <trkpt lat="48.32703" lon="3.00236">
        <ele>121.1388092041</ele>
        <time>2017-03-05T15:06:03Z</time>
      </trkpt>
      <trkpt lat="48.32663" lon="3.00218">
        <ele>123.84957885742</ele>
        <time>2017-03-05T15:06:07Z</time>
      </trkpt>
      <trkpt lat="48.32548" lon="3.00167">
        <ele>124.49633789062</ele>
        <time>2017-03-05T15:06:18Z</time>
      </trkpt>
      <trkpt lat="48.32464" lon="3.00129">
        <ele>123.03279876709</ele>
        <time>2017-03-05T15:06:50Z</time>
      </trkpt>
      <trkpt lat="48.3244" lon="3.00117">
        <ele>123.03279876709</ele>
        <time>2017-03-05T15:07:13Z</time>
      </trkpt>
      <trkpt lat="48.32425" lon="3.00106">
        <ele>122.93085479736</ele>
        <time>2017-03-05T15:07:20Z</time>
      </trkpt>
      <trkpt lat="48.32395" lon="3.0008">
        <ele>122.75740814209</ele>
        <time>2017-03-05T15:07:24Z</time>
      </trkpt>
      <trkpt lat="48.32368" lon="3.00054">
        <ele>122.86588287354</ele>
        <time>2017-03-05T15:07:33Z</time>
      </trkpt>
      <trkpt lat="48.32325" lon="3.00006">
        <ele>124.267578125</ele>
        <time>2017-03-05T15:07:42Z</time>
      </trkpt>
      <trkpt lat="48.32304" lon="2.9998">
        <ele>125.73789215088</ele>
        <time>2017-03-05T15:07:56Z</time>
      </trkpt>
      <trkpt lat="48.32277" lon="2.99936">
        <ele>127.21091461182</ele>
        <time>2017-03-05T15:08:03Z</time>
      </trkpt>
      <trkpt lat="48.32237" lon="2.99854">
        <ele>129.18186950684</ele>
        <time>2017-03-05T15:08:14Z</time>
      </trkpt>
      <trkpt lat="48.32235" lon="2.99853">
        <ele>129.40031433105</ele>
        <time>2017-03-05T15:08:32Z</time>
      </trkpt>
      <trkpt lat="48.32235" lon="2.99853">
        <ele>129.40031433105</ele>
        <time>2017-03-05T15:08:33Z</time>
      </trkpt>
      <trkpt lat="48.32233" lon="2.99851">
        <ele>129.54595947266</ele>
        <time>2017-03-05T15:08:33Z</time>
      </trkpt>
      <trkpt lat="48.32236" lon="2.99878">
        <ele>130.49530029297</ele>
        <time>2017-03-05T15:08:34Z</time>
      </trkpt>
      <trkpt lat="48.32247" lon="2.99984">
        <ele>132.18675231934</ele>
        <time>2017-03-05T15:08:39Z</time>
      </trkpt>
      <trkpt lat="48.32245" lon="2.99994">
        <ele>132.62417602539</ele>
        <time>2017-03-05T15:08:58Z</time>
      </trkpt>
      <trkpt lat="48.32237" lon="2.99999">
        <ele>133.50849914551</ele>
        <time>2017-03-05T15:09:00Z</time>
      </trkpt>
      <trkpt lat="48.32178" lon="3.00007">
        <ele>139.1471862793</ele>
        <time>2017-03-05T15:09:02Z</time>
      </trkpt>
      <trkpt lat="48.32175" lon="3.00011">
        <ele>139.22131347656</ele>
        <time>2017-03-05T15:09:18Z</time>
      </trkpt>
      <trkpt lat="48.32175" lon="3.00011">
        <ele>139.22131347656</ele>
        <time>2017-03-05T15:09:19Z</time>
      </trkpt>
      <trkpt lat="48.32165" lon="2.99994">
        <ele>140.51370239258</ele>
        <time>2017-03-05T15:09:19Z</time>
      </trkpt>
      <trkpt lat="48.3213" lon="2.99951">
        <ele>144.95971679688</ele>
        <time>2017-03-05T15:09:23Z</time>
      </trkpt>
      <trkpt lat="48.32098" lon="2.99917">
        <ele>147.33413696289</ele>
        <time>2017-03-05T15:09:35Z</time>
      </trkpt>
      <trkpt lat="48.32069" lon="2.99876">
        <ele>149.18963623047</ele>
        <time>2017-03-05T15:09:45Z</time>
      </trkpt>
      <trkpt lat="48.3206" lon="2.99863">
        <ele>150.00392150879</ele>
        <time>2017-03-05T15:09:56Z</time>
      </trkpt>
      <trkpt lat="48.32057" lon="2.99849">
        <ele>150.08506774902</ele>
        <time>2017-03-05T15:09:59Z</time>
      </trkpt>
      <trkpt lat="48.32054" lon="2.99826">
        <ele>149.92485046387</ele>
        <time>2017-03-05T15:10:02Z</time>
      </trkpt>
      <trkpt lat="48.32049" lon="2.99809">
        <ele>149.97579956055</ele>
        <time>2017-03-05T15:10:06Z</time>
      </trkpt>
      <trkpt lat="48.32041" lon="2.99795">
        <ele>150.26640319824</ele>
        <time>2017-03-05T15:10:09Z</time>
      </trkpt>
      <trkpt lat="48.32029" lon="2.99782">
        <ele>150.57936096191</ele>
        <time>2017-03-05T15:10:12Z</time>
      </trkpt>
      <trkpt lat="48.32029" lon="2.99782">
        <ele>150.57936096191</ele>
        <time>2017-03-05T15:10:16Z</time>
      </trkpt>
      <trkpt lat="48.32016" lon="2.99652">
        <ele>144.99159240723</ele>
        <time>2017-03-05T15:10:16Z</time>
      </trkpt>
      <trkpt lat="48.32" lon="2.99564">
        <ele>140.48303222656</ele>
        <time>2017-03-05T15:10:39Z</time>
      </trkpt>
      <trkpt lat="48.3199" lon="2.9954">
        <ele>139.37336730957</ele>
        <time>2017-03-05T15:10:55Z</time>
      </trkpt>
      <trkpt lat="48.31986" lon="2.99536">
        <ele>139.22937011719</ele>
        <time>2017-03-05T15:11:00Z</time>
      </trkpt>
      <trkpt lat="48.31987" lon="2.99533">
        <ele>138.90675354004</ele>
        <time>2017-03-05T15:11:01Z</time>
      </trkpt>
      <trkpt lat="48.31986" lon="2.99527">
        <ele>138.41581726074</ele>
        <time>2017-03-05T15:11:02Z</time>
      </trkpt>
      <trkpt lat="48.31978" lon="2.99509">
        <ele>137.13714599609</ele>
        <time>2017-03-05T15:11:03Z</time>
      </trkpt>
      <trkpt lat="48.31967" lon="2.995">
        <ele>136.76802062988</ele>
        <time>2017-03-05T15:11:07Z</time>
      </trkpt>
      <trkpt lat="48.31945" lon="2.99493">
        <ele>136.97720336914</ele>
        <time>2017-03-05T15:11:10Z</time>
      </trkpt>
      <trkpt lat="48.31936" lon="2.99489">
        <ele>136.93089294434</ele>
        <time>2017-03-05T15:11:16Z</time>
      </trkpt>
      <trkpt lat="48.31905" lon="2.99502">
        <ele>137.72369384766</ele>
        <time>2017-03-05T15:11:19Z</time>
      </trkpt>
      <trkpt lat="48.319" lon="2.99503">
        <ele>137.55944824219</ele>
        <time>2017-03-05T15:11:28Z</time>
      </trkpt>
      <trkpt lat="48.31895" lon="2.99502">
        <ele>137.22241210938</ele>
        <time>2017-03-05T15:11:29Z</time>
      </trkpt>
      <trkpt lat="48.31892" lon="2.99501">
        <ele>136.99072265625</ele>
        <time>2017-03-05T15:11:30Z</time>
      </trkpt>
      <trkpt lat="48.31877" lon="2.99481">
        <ele>134.81312561035</ele>
        <time>2017-03-05T15:11:31Z</time>
      </trkpt>
      <trkpt lat="48.31873" lon="2.99477">
        <ele>134.38920593262</ele>
        <time>2017-03-05T15:11:36Z</time>
      </trkpt>
      <trkpt lat="48.31868" lon="2.99475">
        <ele>134.08602905273</ele>
        <time>2017-03-05T15:11:37Z</time>
      </trkpt>
      <trkpt lat="48.31866" lon="2.99474">
        <ele>133.95536804199</ele>
        <time>2017-03-05T15:11:38Z</time>
      </trkpt>
      <trkpt lat="48.31864" lon="2.99473">
        <ele>133.82725524902</ele>
        <time>2017-03-05T15:11:39Z</time>
      </trkpt>
      <trkpt lat="48.31841" lon="2.99474">
        <ele>132.6768951416</ele>
        <time>2017-03-05T15:11:40Z</time>
      </trkpt>
      <trkpt lat="48.31838" lon="2.99469">
        <ele>132.21195983887</ele>
        <time>2017-03-05T15:11:46Z</time>
      </trkpt>
      <trkpt lat="48.31823" lon="2.99452">
        <ele>130.39315795898</ele>
        <time>2017-03-05T15:11:47Z</time>
      </trkpt>
      <trkpt lat="48.31806" lon="2.99419">
        <ele>128.09373474121</ele>
        <time>2017-03-05T15:11:52Z</time>
      </trkpt>
      <trkpt lat="48.31791" lon="2.99374">
        <ele>126.01308441162</ele>
        <time>2017-03-05T15:11:59Z</time>
      </trkpt>
      <trkpt lat="48.31788" lon="2.99373">
        <ele>125.89657592773</ele>
        <time>2017-03-05T15:12:08Z</time>
      </trkpt>
      <trkpt lat="48.31762" lon="2.99394">
        <ele>125.29707336426</ele>
        <time>2017-03-05T15:12:09Z</time>
      </trkpt>
      <trkpt lat="48.31722" lon="2.99431">
        <ele>123.97571563721</ele>
        <time>2017-03-05T15:12:17Z</time>
      </trkpt>
      <trkpt lat="48.31669" lon="2.9948">
        <ele>122.11605834961</ele>
        <time>2017-03-05T15:12:30Z</time>
      </trkpt>
      <trkpt lat="48.31625" lon="2.99511">
        <ele>119.57626342773</ele>
        <time>2017-03-05T15:12:47Z</time>
      </trkpt>
      <trkpt lat="48.31593" lon="2.99529">
        <ele>117.72817993164</ele>
        <time>2017-03-05T15:13:00Z</time>
      </trkpt>
      <trkpt lat="48.31558" lon="2.99551">
        <ele>115.99005889893</ele>
        <time>2017-03-05T15:13:09Z</time>
      </trkpt>
      <trkpt lat="48.31533" lon="2.9958">
        <ele>114.89778900146</ele>
        <time>2017-03-05T15:13:19Z</time>
      </trkpt>
      <trkpt lat="48.31507" lon="2.99626">
        <ele>113.14193725586</ele>
        <time>2017-03-05T15:13:27Z</time>
      </trkpt>
      <trkpt lat="48.31491" lon="2.99655">
        <ele>112.02054595947</ele>
        <time>2017-03-05T15:13:38Z</time>
      </trkpt>
      <trkpt lat="48.31491" lon="2.99655">
        <ele>112.02054595947</ele>
        <time>2017-03-05T15:13:45Z</time>
      </trkpt>
      <trkpt lat="48.31348" lon="2.99179">
        <ele>115.49501800537</ele>
        <time>2017-03-05T15:13:45Z</time>
      </trkpt>
      <trkpt lat="48.31348" lon="2.99176">
        <ele>115.53871154785</ele>
        <time>2017-03-05T15:15:18Z</time>
      </trkpt>
      <trkpt lat="48.31425" lon="2.99121">
        <ele>116.20101165771</ele>
        <time>2017-03-05T15:15:19Z</time>
      </trkpt>
      <trkpt lat="48.31419" lon="2.99117">
        <ele>116.28623962402</ele>
        <time>2017-03-05T15:15:42Z</time>
      </trkpt>
      <trkpt lat="48.31419" lon="2.99117">
        <ele>116.28623962402</ele>
        <time>2017-03-05T15:15:44Z</time>
      </trkpt>
      <trkpt lat="48.31393" lon="2.99101">
        <ele>116.75884246826</ele>
        <time>2017-03-05T15:15:44Z</time>
      </trkpt>
      <trkpt lat="48.3136" lon="2.99083">
        <ele>117.3515625</ele>
        <time>2017-03-05T15:15:52Z</time>
      </trkpt>
      <trkpt lat="48.3136" lon="2.99083">
        <ele>117.3515625</ele>
        <time>2017-03-05T15:16:01Z</time>
      </trkpt>
      <trkpt lat="48.31364" lon="2.99083">
        <ele>117.33477783203</ele>
        <time>2017-03-05T15:16:01Z</time>
      </trkpt>
      <trkpt lat="48.31364" lon="2.99081">
        <ele>117.36862945557</ele>
        <time>2017-03-05T15:16:02Z</time>
      </trkpt>
      <trkpt lat="48.31349" lon="2.99052">
        <ele>118.02094268799</ele>
        <time>2017-03-05T15:16:02Z</time>
      </trkpt>
      <trkpt lat="48.31338" lon="2.99029">
        <ele>118.6212310791</ele>
        <time>2017-03-05T15:16:09Z</time>
      </trkpt>
      <trkpt lat="48.31337" lon="2.99024">
        <ele>118.71882629395</ele>
        <time>2017-03-05T15:16:14Z</time>
      </trkpt>
      <trkpt lat="48.31336" lon="2.99023">
        <ele>118.75427246094</ele>
        <time>2017-03-05T15:16:15Z</time>
      </trkpt>
      <trkpt lat="48.31332" lon="2.99019">
        <ele>118.90456390381</ele>
        <time>2017-03-05T15:16:15Z</time>
      </trkpt>
      <trkpt lat="48.31263" lon="2.98854">
        <ele>130.24447631836</ele>
        <time>2017-03-05T15:16:16Z</time>
      </trkpt>
      <trkpt lat="48.31212" lon="2.98735">
        <ele>140.92747497559</ele>
        <time>2017-03-05T15:16:51Z</time>
      </trkpt>
      <trkpt lat="48.31199" lon="2.98715">
        <ele>142.84986877441</ele>
        <time>2017-03-05T15:17:16Z</time>
      </trkpt>
      <trkpt lat="48.31184" lon="2.98683">
        <ele>145.3853302002</ele>
        <time>2017-03-05T15:17:21Z</time>
      </trkpt>
      <trkpt lat="48.31176" lon="2.9864">
        <ele>147.15327453613</ele>
        <time>2017-03-05T15:17:28Z</time>
      </trkpt>
      <trkpt lat="48.31174" lon="2.9855">
        <ele>150.83764648438</ele>
        <time>2017-03-05T15:17:36Z</time>
      </trkpt>
      <trkpt lat="48.31172" lon="2.98508">
        <ele>151.5366973877</ele>
        <time>2017-03-05T15:17:52Z</time>
      </trkpt>
      <trkpt lat="48.31168" lon="2.9849">
        <ele>151.90663146973</ele>
        <time>2017-03-05T15:17:59Z</time>
      </trkpt>
      <trkpt lat="48.31151" lon="2.98458">
        <ele>151.94209289551</ele>
        <time>2017-03-05T15:18:02Z</time>
      </trkpt>
      <trkpt lat="48.31141" lon="2.98446">
        <ele>152.05332946777</ele>
        <time>2017-03-05T15:18:09Z</time>
      </trkpt>
      <trkpt lat="48.31127" lon="2.98442">
        <ele>152.1513671875</ele>
        <time>2017-03-05T15:18:12Z</time>
      </trkpt>
      <trkpt lat="48.31115" lon="2.98434">
        <ele>152.37817382812</ele>
        <time>2017-03-05T15:18:16Z</time>
      </trkpt>
      <trkpt lat="48.31109" lon="2.98424">
        <ele>152.67514038086</ele>
        <time>2017-03-05T15:18:20Z</time>
      </trkpt>
      <trkpt lat="48.31088" lon="2.9839">
        <ele>154.36682128906</ele>
        <time>2017-03-05T15:18:22Z</time>
      </trkpt>
      <trkpt lat="48.31058" lon="2.98319">
        <ele>156.15823364258</ele>
        <time>2017-03-05T15:18:30Z</time>
      </trkpt>
      <trkpt lat="48.31036" lon="2.98276">
        <ele>155.97937011719</ele>
        <time>2017-03-05T15:18:45Z</time>
      </trkpt>
      <trkpt lat="48.31015" lon="2.9824">
        <ele>154.76324462891</ele>
        <time>2017-03-05T15:18:55Z</time>
      </trkpt>
      <trkpt lat="48.31001" lon="2.98221">
        <ele>154.24528503418</ele>
        <time>2017-03-05T15:19:04Z</time>
      </trkpt>
      <trkpt lat="48.30997" lon="2.98215">
        <ele>154.1056060791</ele>
        <time>2017-03-05T15:19:09Z</time>
      </trkpt>
      <trkpt lat="48.30978" lon="2.98202">
        <ele>153.85571289062</ele>
        <time>2017-03-05T15:19:11Z</time>
      </trkpt>
      <trkpt lat="48.30933" lon="2.98182">
        <ele>153.5901184082</ele>
        <time>2017-03-05T15:19:17Z</time>
      </trkpt>
      <trkpt lat="48.30884" lon="2.98162">
        <ele>152.94831848145</ele>
        <time>2017-03-05T15:19:30Z</time>
      </trkpt>
      <trkpt lat="48.30856" lon="2.98148">
        <ele>151.92123413086</ele>
        <time>2017-03-05T15:19:44Z</time>
      </trkpt>
      <trkpt lat="48.30812" lon="2.98137">
        <ele>150.74682617188</ele>
        <time>2017-03-05T15:19:52Z</time>
      </trkpt>
      <trkpt lat="48.30803" lon="2.98131">
        <ele>150.56593322754</ele>
        <time>2017-03-05T15:20:04Z</time>
      </trkpt>
      <trkpt lat="48.30803" lon="2.98131">
        <ele>150.56593322754</ele>
        <time>2017-03-05T15:20:07Z</time>
      </trkpt>
      <trkpt lat="48.30811" lon="2.98044">
        <ele>150.74880981445</ele>
        <time>2017-03-05T15:20:07Z</time>
      </trkpt>
      <trkpt lat="48.30809" lon="2.98019">
        <ele>151.37565612793</ele>
        <time>2017-03-05T15:20:23Z</time>
      </trkpt>
      <trkpt lat="48.30805" lon="2.98015">
        <ele>151.4288482666</ele>
        <time>2017-03-05T15:20:27Z</time>
      </trkpt>
      <trkpt lat="48.30788" lon="2.98013">
        <ele>151.26261901855</ele>
        <time>2017-03-05T15:20:28Z</time>
      </trkpt>
      <trkpt lat="48.30782" lon="2.98008">
        <ele>151.28567504883</ele>
        <time>2017-03-05T15:20:33Z</time>
      </trkpt>
      <trkpt lat="48.30779" lon="2.97998">
        <ele>151.35089111328</ele>
        <time>2017-03-05T15:20:35Z</time>
      </trkpt>
      <trkpt lat="48.30771" lon="2.97947">
        <ele>151.69816589355</ele>
        <time>2017-03-05T15:20:37Z</time>
      </trkpt>
      <trkpt lat="48.3076" lon="2.9793">
        <ele>151.86848449707</ele>
        <time>2017-03-05T15:20:46Z</time>
      </trkpt>
      <trkpt lat="48.30746" lon="2.97914">
        <ele>151.41334533691</ele>
        <time>2017-03-05T15:20:50Z</time>
      </trkpt>
      <trkpt lat="48.3072" lon="2.97838">
        <ele>149.65394592285</ele>
        <time>2017-03-05T15:20:55Z</time>
      </trkpt>
      <trkpt lat="48.30692" lon="2.9776">
        <ele>148.33595275879</ele>
        <time>2017-03-05T15:21:10Z</time>
      </trkpt>
      <trkpt lat="48.30692" lon="2.97756">
        <ele>148.27172851562</ele>
        <time>2017-03-05T15:21:26Z</time>
      </trkpt>
      <trkpt lat="48.30692" lon="2.97756">
        <ele>148.27172851562</ele>
        <time>2017-03-05T15:21:27Z</time>
      </trkpt>
      <trkpt lat="48.30695" lon="2.97747">
        <ele>148.0184173584</ele>
        <time>2017-03-05T15:21:27Z</time>
      </trkpt>
      <trkpt lat="48.30735" lon="2.977">
        <ele>144.52630615234</ele>
        <time>2017-03-05T15:21:29Z</time>
      </trkpt>
      <trkpt lat="48.30757" lon="2.97663">
        <ele>141.13668823242</ele>
        <time>2017-03-05T15:21:43Z</time>
      </trkpt>
      <trkpt lat="48.30771" lon="2.97627">
        <ele>138.72515869141</ele>
        <time>2017-03-05T15:21:52Z</time>
      </trkpt>
      <trkpt lat="48.30776" lon="2.97603">
        <ele>137.31329345703</ele>
        <time>2017-03-05T15:21:59Z</time>
      </trkpt>
      <trkpt lat="48.30777" lon="2.97585">
        <ele>136.23316955566</ele>
        <time>2017-03-05T15:22:03Z</time>
      </trkpt>
      <trkpt lat="48.30772" lon="2.97548">
        <ele>133.93255615234</ele>
        <time>2017-03-05T15:22:06Z</time>
      </trkpt>
      <trkpt lat="48.30774" lon="2.97537">
        <ele>133.14649963379</ele>
        <time>2017-03-05T15:22:13Z</time>
      </trkpt>
      <trkpt lat="48.3078" lon="2.9753">
        <ele>132.44305419922</ele>
        <time>2017-03-05T15:22:15Z</time>
      </trkpt>
      <trkpt lat="48.30788" lon="2.9753">
        <ele>132.11560058594</ele>
        <time>2017-03-05T15:22:17Z</time>
      </trkpt>
      <trkpt lat="48.30823" lon="2.97531">
        <ele>130.76913452148</ele>
        <time>2017-03-05T15:22:19Z</time>
      </trkpt>
      <trkpt lat="48.30852" lon="2.97524">
        <ele>128.90493774414</ele>
        <time>2017-03-05T15:22:28Z</time>
      </trkpt>
      <trkpt lat="48.30898" lon="2.97518">
        <ele>126.5913772583</ele>
        <time>2017-03-05T15:22:36Z</time>
      </trkpt>
      <trkpt lat="48.30996" lon="2.9751">
        <ele>125.52980041504</ele>
        <time>2017-03-05T15:22:48Z</time>
      </trkpt>
      <trkpt lat="48.31084" lon="2.9751">
        <ele>122.68529510498</ele>
        <time>2017-03-05T15:23:14Z</time>
      </trkpt>
      <trkpt lat="48.31112" lon="2.97508">
        <ele>121.08745574951</ele>
        <time>2017-03-05T15:23:38Z</time>
      </trkpt>
      <trkpt lat="48.31127" lon="2.97515">
        <ele>120.85504150391</ele>
        <time>2017-03-05T15:23:45Z</time>
      </trkpt>
      <trkpt lat="48.31162" lon="2.97528">
        <ele>119.88777160645</ele>
        <time>2017-03-05T15:23:49Z</time>
      </trkpt>
      <trkpt lat="48.31209" lon="2.97538">
        <ele>118.03302764893</ele>
        <time>2017-03-05T15:23:59Z</time>
      </trkpt>
      <trkpt lat="48.313" lon="2.97552">
        <ele>114.17440032959</ele>
        <time>2017-03-05T15:24:12Z</time>
      </trkpt>
      <trkpt lat="48.31354" lon="2.97552">
        <ele>111.87059783936</ele>
        <time>2017-03-05T15:24:36Z</time>
      </trkpt>
      <trkpt lat="48.31354" lon="2.97552">
        <ele>111.87059783936</ele>
        <time>2017-03-05T15:24:50Z</time>
      </trkpt>
      <trkpt lat="48.3135" lon="2.97478">
        <ele>112.57211303711</ele>
        <time>2017-03-05T15:24:50Z</time>
      </trkpt>
      <trkpt lat="48.3134" lon="2.97406">
        <ele>114.07497406006</ele>
        <time>2017-03-05T15:25:03Z</time>
      </trkpt>
      <trkpt lat="48.31335" lon="2.97331">
        <ele>114.91830444336</ele>
        <time>2017-03-05T15:25:16Z</time>
      </trkpt>
      <trkpt lat="48.31331" lon="2.97239">
        <ele>115.87797546387</ele>
        <time>2017-03-05T15:25:29Z</time>
      </trkpt>
      <trkpt lat="48.31317" lon="2.97148">
        <ele>118.95481872559</ele>
        <time>2017-03-05T15:25:45Z</time>
      </trkpt>
      <trkpt lat="48.31318" lon="2.97107">
        <ele>120.49156951904</ele>
        <time>2017-03-05T15:26:02Z</time>
      </trkpt>
      <trkpt lat="48.31331" lon="2.97036">
        <ele>121.46237945557</ele>
        <time>2017-03-05T15:26:09Z</time>
      </trkpt>
      <trkpt lat="48.31332" lon="2.96994">
        <ele>121.13144683838</ele>
        <time>2017-03-05T15:26:22Z</time>
      </trkpt>
      <trkpt lat="48.31326" lon="2.9694">
        <ele>120.3713760376</ele>
        <time>2017-03-05T15:26:29Z</time>
      </trkpt>
      <trkpt lat="48.31316" lon="2.96883">
        <ele>119.69925689697</ele>
        <time>2017-03-05T15:26:39Z</time>
      </trkpt>
      <trkpt lat="48.31302" lon="2.96828">
        <ele>120.51097106934</ele>
        <time>2017-03-05T15:26:49Z</time>
      </trkpt>
      <trkpt lat="48.31273" lon="2.96734">
        <ele>122.67031097412</ele>
        <time>2017-03-05T15:26:59Z</time>
      </trkpt>
      <trkpt lat="48.31262" lon="2.967">
        <ele>122.89617919922</ele>
        <time>2017-03-05T15:27:17Z</time>
      </trkpt>
      <trkpt lat="48.31262" lon="2.967">
        <ele>122.89617919922</ele>
        <time>2017-03-05T15:27:24Z</time>
      </trkpt>
      <trkpt lat="48.31074" lon="2.96716">
        <ele>138.4224395752</ele>
        <time>2017-03-05T15:27:24Z</time>
      </trkpt>
      <trkpt lat="48.30856" lon="2.96674">
        <ele>152.19274902344</ele>
        <time>2017-03-05T15:28:14Z</time>
      </trkpt>
      <trkpt lat="48.30794" lon="2.96676">
        <ele>154.95417785645</ele>
        <time>2017-03-05T15:29:13Z</time>
      </trkpt>
      <trkpt lat="48.30762" lon="2.96674">
        <ele>155.9736328125</ele>
        <time>2017-03-05T15:29:30Z</time>
      </trkpt>
      <trkpt lat="48.30714" lon="2.96675">
        <ele>157.73193359375</ele>
        <time>2017-03-05T15:29:39Z</time>
      </trkpt>
      <trkpt lat="48.30624" lon="2.96676">
        <ele>157.42448425293</ele>
        <time>2017-03-05T15:29:52Z</time>
      </trkpt>
      <trkpt lat="48.30624" lon="2.96684">
        <ele>157.30085754395</ele>
        <time>2017-03-05T15:30:16Z</time>
      </trkpt>
      <trkpt lat="48.30624" lon="2.96684">
        <ele>157.30085754395</ele>
        <time>2017-03-05T15:30:17Z</time>
      </trkpt>
      <trkpt lat="48.30622" lon="2.96744">
        <ele>156.34284973145</ele>
        <time>2017-03-05T15:30:17Z</time>
      </trkpt>
      <trkpt lat="48.30619" lon="2.96768">
        <ele>155.97903442383</ele>
        <time>2017-03-05T15:30:28Z</time>
      </trkpt>
      <trkpt lat="48.30617" lon="2.96837">
        <ele>155.04318237305</ele>
        <time>2017-03-05T15:30:32Z</time>
      </trkpt>
      <trkpt lat="48.30619" lon="2.96959">
        <ele>156.02365112305</ele>
        <time>2017-03-05T15:30:44Z</time>
      </trkpt>
      <trkpt lat="48.30617" lon="2.96995">
        <ele>155.79113769531</ele>
        <time>2017-03-05T15:31:06Z</time>
      </trkpt>
      <trkpt lat="48.30612" lon="2.97023">
        <ele>155.59747314453</ele>
        <time>2017-03-05T15:31:12Z</time>
      </trkpt>
      <trkpt lat="48.30608" lon="2.97127">
        <ele>154.06492614746</ele>
        <time>2017-03-05T15:31:17Z</time>
      </trkpt>
      <trkpt lat="48.30605" lon="2.97161">
        <ele>153.20568847656</ele>
        <time>2017-03-05T15:31:36Z</time>
      </trkpt>
      <trkpt lat="48.30602" lon="2.97204">
        <ele>152.08428955078</ele>
        <time>2017-03-05T15:31:42Z</time>
      </trkpt>
      <trkpt lat="48.30604" lon="2.97257">
        <ele>150.59936523438</ele>
        <time>2017-03-05T15:31:50Z</time>
      </trkpt>
      <trkpt lat="48.30601" lon="2.97258">
        <ele>150.72505187988</ele>
        <time>2017-03-05T15:31:59Z</time>
      </trkpt>
      <trkpt lat="48.30601" lon="2.97258">
        <ele>150.72505187988</ele>
        <time>2017-03-05T15:32:00Z</time>
      </trkpt>
      <trkpt lat="48.30579" lon="2.97263">
        <ele>151.69946289062</ele>
        <time>2017-03-05T15:32:00Z</time>
      </trkpt>
      <trkpt lat="48.30545" lon="2.97248">
        <ele>152.9327545166</ele>
        <time>2017-03-05T15:32:06Z</time>
      </trkpt>
      <trkpt lat="48.30504" lon="2.97236">
        <ele>152.43055725098</ele>
        <time>2017-03-05T15:32:15Z</time>
      </trkpt>
      <trkpt lat="48.30484" lon="2.97226">
        <ele>152.03678894043</ele>
        <time>2017-03-05T15:32:26Z</time>
      </trkpt>
      <trkpt lat="48.3045" lon="2.97193">
        <ele>149.42665100098</ele>
        <time>2017-03-05T15:32:32Z</time>
      </trkpt>
      <trkpt lat="48.30439" lon="2.97178">
        <ele>148.26377868652</ele>
        <time>2017-03-05T15:32:43Z</time>
      </trkpt>
      <trkpt lat="48.30406" lon="2.97153">
        <ele>146.20091247559</ele>
        <time>2017-03-05T15:32:47Z</time>
      </trkpt>
      <trkpt lat="48.30392" lon="2.9715">
        <ele>145.18899536133</ele>
        <time>2017-03-05T15:32:57Z</time>
      </trkpt>
      <trkpt lat="48.3038" lon="2.97149">
        <ele>144.26715087891</ele>
        <time>2017-03-05T15:33:01Z</time>
      </trkpt>
      <trkpt lat="48.30358" lon="2.97153">
        <ele>142.57470703125</ele>
        <time>2017-03-05T15:33:04Z</time>
      </trkpt>
      <trkpt lat="48.30316" lon="2.97159">
        <ele>137.87036132812</ele>
        <time>2017-03-05T15:33:10Z</time>
      </trkpt>
      <trkpt lat="48.30295" lon="2.97164">
        <ele>135.19065856934</ele>
        <time>2017-03-05T15:33:21Z</time>
      </trkpt>
      <trkpt lat="48.30266" lon="2.97181">
        <ele>131.8120880127</ele>
        <time>2017-03-05T15:33:27Z</time>
      </trkpt>
      <trkpt lat="48.30235" lon="2.97201">
        <ele>128.89273071289</ele>
        <time>2017-03-05T15:33:35Z</time>
      </trkpt>
      <trkpt lat="48.30228" lon="2.9721">
        <ele>128.34690856934</ele>
        <time>2017-03-05T15:33:44Z</time>
      </trkpt>
      <trkpt lat="48.30218" lon="2.97218">
        <ele>127.36885070801</ele>
        <time>2017-03-05T15:33:46Z</time>
      </trkpt>
      <trkpt lat="48.30195" lon="2.97224">
        <ele>124.79821777344</ele>
        <time>2017-03-05T15:33:49Z</time>
      </trkpt>
      <trkpt lat="48.30188" lon="2.97228">
        <ele>124.05740356445</ele>
        <time>2017-03-05T15:33:55Z</time>
      </trkpt>
      <trkpt lat="48.3018" lon="2.97232">
        <ele>123.16059875488</ele>
        <time>2017-03-05T15:33:57Z</time>
      </trkpt>
      <trkpt lat="48.30173" lon="2.97234">
        <ele>122.33203887939</ele>
        <time>2017-03-05T15:33:59Z</time>
      </trkpt>
      <trkpt lat="48.30157" lon="2.97232">
        <ele>120.39239501953</ele>
        <time>2017-03-05T15:34:01Z</time>
      </trkpt>
      <trkpt lat="48.30143" lon="2.97236">
        <ele>118.65892791748</ele>
        <time>2017-03-05T15:34:05Z</time>
      </trkpt>
      <trkpt lat="48.30125" lon="2.97248">
        <ele>116.36498260498</ele>
        <time>2017-03-05T15:34:09Z</time>
      </trkpt>
      <trkpt lat="48.30104" lon="2.97268">
        <ele>114.31873321533</ele>
        <time>2017-03-05T15:34:14Z</time>
      </trkpt>
      <trkpt lat="48.30087" lon="2.97282">
        <ele>112.5219039917</ele>
        <time>2017-03-05T15:34:21Z</time>
      </trkpt>
      <trkpt lat="48.30013" lon="2.97334">
        <ele>109.32531738281</ele>
        <time>2017-03-05T15:34:26Z</time>
      </trkpt>
      <trkpt lat="48.29991" lon="2.97343">
        <ele>109.05857086182</ele>
        <time>2017-03-05T15:34:48Z</time>
      </trkpt>
      <trkpt lat="48.29924" lon="2.9735">
        <ele>109.60674285889</ele>
        <time>2017-03-05T15:34:54Z</time>
      </trkpt>
      <trkpt lat="48.29841" lon="2.97358">
        <ele>110.93202209473</ele>
        <time>2017-03-05T15:35:12Z</time>
      </trkpt>
      <trkpt lat="48.29777" lon="2.97361">
        <ele>112.00834655762</ele>
        <time>2017-03-05T15:35:34Z</time>
      </trkpt>
      <trkpt lat="48.29712" lon="2.97356">
        <ele>113.76000213623</ele>
        <time>2017-03-05T15:35:51Z</time>
      </trkpt>
      <trkpt lat="48.29672" lon="2.97351">
        <ele>115.82209014893</ele>
        <time>2017-03-05T15:36:08Z</time>
      </trkpt>
      <trkpt lat="48.29672" lon="2.97351">
        <ele>115.82209014893</ele>
        <time>2017-03-05T15:36:19Z</time>
      </trkpt>
      <trkpt lat="48.2962" lon="2.97346">
        <ele>119.25171661377</ele>
        <time>2017-03-05T15:36:19Z</time>
      </trkpt>
      <trkpt lat="48.29597" lon="2.9734">
        <ele>121.16667175293</ele>
        <time>2017-03-05T15:36:33Z</time>
      </trkpt>
      <trkpt lat="48.2958" lon="2.97332">
        <ele>122.70673370361</ele>
        <time>2017-03-05T15:36:39Z</time>
      </trkpt>
      <trkpt lat="48.2954" lon="2.97308">
        <ele>125.21564483643</ele>
        <time>2017-03-05T15:36:44Z</time>
      </trkpt>
      <trkpt lat="48.2949" lon="2.97276">
        <ele>126.90815734863</ele>
        <time>2017-03-05T15:36:56Z</time>
      </trkpt>
      <trkpt lat="48.29412" lon="2.97235">
        <ele>128.38847351074</ele>
        <time>2017-03-05T15:37:11Z</time>
      </trkpt>
      <trkpt lat="48.29327" lon="2.97187">
        <ele>127.27144622803</ele>
        <time>2017-03-05T15:37:33Z</time>
      </trkpt>
      <trkpt lat="48.29262" lon="2.97159">
        <ele>124.60676574707</ele>
        <time>2017-03-05T15:37:57Z</time>
      </trkpt>
      <trkpt lat="48.2923" lon="2.97154">
        <ele>123.2781829834</ele>
        <time>2017-03-05T15:38:15Z</time>
      </trkpt>
      <trkpt lat="48.29171" lon="2.97155">
        <ele>120.6005859375</ele>
        <time>2017-03-05T15:38:24Z</time>
      </trkpt>
      <trkpt lat="48.29114" lon="2.97149">
        <ele>117.28009033203</ele>
        <time>2017-03-05T15:38:40Z</time>
      </trkpt>
      <trkpt lat="48.29065" lon="2.97155">
        <ele>114.4256362915</ele>
        <time>2017-03-05T15:38:55Z</time>
      </trkpt>
      <trkpt lat="48.28976" lon="2.97184">
        <ele>109.24101257324</ele>
        <time>2017-03-05T15:39:08Z</time>
      </trkpt>
      <trkpt lat="48.28913" lon="2.97209">
        <ele>108.14274597168</ele>
        <time>2017-03-05T15:39:32Z</time>
      </trkpt>
      <trkpt lat="48.28913" lon="2.97209">
        <ele>108.14274597168</ele>
        <time>2017-03-05T15:39:49Z</time>
      </trkpt>
      <trkpt lat="48.28922" lon="2.97206">
        <ele>108.27381896973</ele>
        <time>2017-03-05T15:39:49Z</time>
      </trkpt>
      <trkpt lat="48.28914" lon="2.97257">
        <ele>107.95703125</ele>
        <time>2017-03-05T15:39:51Z</time>
      </trkpt>
      <trkpt lat="48.28911" lon="2.97272">
        <ele>107.51569366455</ele>
        <time>2017-03-05T15:40:00Z</time>
      </trkpt>
      <trkpt lat="48.28902" lon="2.97263">
        <ele>107.55266571045</ele>
        <time>2017-03-05T15:40:03Z</time>
      </trkpt>
      <trkpt lat="48.28901" lon="2.97281">
        <ele>106.99925231934</ele>
        <time>2017-03-05T15:40:06Z</time>
      </trkpt>
      <trkpt lat="48.289" lon="2.97312">
        <ele>106.06718444824</ele>
        <time>2017-03-05T15:40:09Z</time>
      </trkpt>
      <trkpt lat="48.28894" lon="2.97364">
        <ele>105.05494689941</ele>
        <time>2017-03-05T15:40:15Z</time>
      </trkpt>
      <trkpt lat="48.28871" lon="2.9748">
        <ele>103.76509857178</ele>
        <time>2017-03-05T15:40:24Z</time>
      </trkpt>
      <trkpt lat="48.28864" lon="2.97509">
        <ele>103.73773193359</ele>
        <time>2017-03-05T15:40:46Z</time>
      </trkpt>
      <trkpt lat="48.28864" lon="2.97509">
        <ele>103.73773193359</ele>
        <time>2017-03-05T15:40:51Z</time>
      </trkpt>
      <trkpt lat="48.28859" lon="2.97514">
        <ele>103.62358856201</ele>
        <time>2017-03-05T15:40:51Z</time>
      </trkpt>
      <trkpt lat="48.2885" lon="2.97508">
        <ele>103.27561950684</ele>
        <time>2017-03-05T15:40:53Z</time>
      </trkpt>
      <trkpt lat="48.2883" lon="2.97492">
        <ele>102.47524261475</ele>
        <time>2017-03-05T15:40:56Z</time>
      </trkpt>
      <trkpt lat="48.28818" lon="2.97486">
        <ele>102.21309661865</ele>
        <time>2017-03-05T15:41:02Z</time>
      </trkpt>
      <trkpt lat="48.28797" lon="2.97481">
        <ele>101.83444976807</ele>
        <time>2017-03-05T15:41:05Z</time>
      </trkpt>
      <trkpt lat="48.28777" lon="2.9747">
        <ele>101.38297271729</ele>
        <time>2017-03-05T15:41:11Z</time>
      </trkpt>
      <trkpt lat="48.28758" lon="2.97454">
        <ele>100.77079772949</ele>
        <time>2017-03-05T15:41:17Z</time>
      </trkpt>
      <trkpt lat="48.28758" lon="2.97457">
        <ele>100.80595397949</ele>
        <time>2017-03-05T15:41:23Z</time>
      </trkpt>
      <trkpt lat="48.28715" lon="2.97592">
        <ele>104.7325668335</ele>
        <time>2017-03-05T15:41:24Z</time>
      </trkpt>
      <trkpt lat="48.28715" lon="2.97592">
        <ele>104.7325668335</ele>
        <time>2017-03-05T15:41:51Z</time>
      </trkpt>
      <trkpt lat="48.28664" lon="2.97544">
        <ele>102.62744903564</ele>
        <time>2017-03-05T15:41:51Z</time>
      </trkpt>
      <trkpt lat="48.28627" lon="2.97507">
        <ele>100.33567810059</ele>
        <time>2017-03-05T15:42:07Z</time>
      </trkpt>
      <trkpt lat="48.28587" lon="2.97466">
        <ele>99.289581298828</ele>
        <time>2017-03-05T15:42:19Z</time>
      </trkpt>
      <trkpt lat="48.28552" lon="2.97422">
        <ele>97.20198059082</ele>
        <time>2017-03-05T15:42:32Z</time>
      </trkpt>
      <trkpt lat="48.28527" lon="2.97395">
        <ele>95.993202209473</ele>
        <time>2017-03-05T15:42:44Z</time>
      </trkpt>
      <trkpt lat="48.28483" lon="2.97339">
        <ele>93.095169067383</ele>
        <time>2017-03-05T15:42:52Z</time>
      </trkpt>
      <trkpt lat="48.28476" lon="2.97325">
        <ele>92.19091796875</ele>
        <time>2017-03-05T15:43:07Z</time>
      </trkpt>
      <trkpt lat="48.28476" lon="2.97325">
        <ele>92.19091796875</ele>
        <time>2017-03-05T15:43:10Z</time>
      </trkpt>
      <trkpt lat="48.28453" lon="2.97334">
        <ele>92.270736694336</ele>
        <time>2017-03-05T15:43:10Z</time>
      </trkpt>
      <trkpt lat="48.28419" lon="2.97354">
        <ele>92.539596557617</ele>
        <time>2017-03-05T15:43:16Z</time>
      </trkpt>
      <trkpt lat="48.28396" lon="2.97368">
        <ele>92.637550354004</ele>
        <time>2017-03-05T15:43:26Z</time>
      </trkpt>
      <trkpt lat="48.28373" lon="2.97379">
        <ele>92.394302368164</ele>
        <time>2017-03-05T15:43:33Z</time>
      </trkpt>
      <trkpt lat="48.28361" lon="2.97383">
        <ele>92.15160369873</ele>
        <time>2017-03-05T15:43:39Z</time>
      </trkpt>
      <trkpt lat="48.28332" lon="2.97387">
        <ele>92.008239746094</ele>
        <time>2017-03-05T15:43:42Z</time>
      </trkpt>
      <trkpt lat="48.28325" lon="2.97391">
        <ele>92.040756225586</ele>
        <time>2017-03-05T15:43:50Z</time>
      </trkpt>
      <trkpt lat="48.28261" lon="2.97385">
        <ele>91.630279541016</ele>
        <time>2017-03-05T15:43:52Z</time>
      </trkpt>
      <trkpt lat="48.28228" lon="2.97381">
        <ele>91.091430664062</ele>
        <time>2017-03-05T15:44:09Z</time>
      </trkpt>
      <trkpt lat="48.28228" lon="2.97381">
        <ele>91.091430664062</ele>
        <time>2017-03-05T15:44:18Z</time>
      </trkpt>
      <trkpt lat="48.28229" lon="2.97404">
        <ele>91.393882751465</ele>
        <time>2017-03-05T15:44:18Z</time>
      </trkpt>
      <trkpt lat="48.28156" lon="2.97384">
        <ele>90.996269226074</ele>
        <time>2017-03-05T15:44:22Z</time>
      </trkpt>
      <trkpt lat="48.2812" lon="2.97373">
        <ele>91</ele>
        <time>2017-03-05T15:44:42Z</time>
      </trkpt>
      <trkpt lat="48.28096" lon="2.97353">
        <ele>91</ele>
        <time>2017-03-05T15:44:52Z</time>
      </trkpt>
      <trkpt lat="48.28081" lon="2.97339">
        <ele>91</ele>
        <time>2017-03-05T15:44:59Z</time>
      </trkpt>
      <trkpt lat="48.28063" lon="2.97332">
        <ele>91.049880981445</ele>
        <time>2017-03-05T15:45:04Z</time>
      </trkpt>
      <trkpt lat="48.28032" lon="2.97322">
        <ele>91.045021057129</ele>
        <time>2017-03-05T15:45:09Z</time>
      </trkpt>
      <trkpt lat="48.28017" lon="2.97317">
        <ele>91.000686645508</ele>
        <time>2017-03-05T15:45:17Z</time>
      </trkpt>
      <trkpt lat="48.27985" lon="2.9729">
        <ele>92.339820861816</ele>
        <time>2017-03-05T15:45:21Z</time>
      </trkpt>
      <trkpt lat="48.27936" lon="2.97259">
        <ele>94.663032531738</ele>
        <time>2017-03-05T15:45:31Z</time>
      </trkpt>
      <trkpt lat="48.27936" lon="2.97259">
        <ele>94.663032531738</ele>
        <time>2017-03-05T15:45:45Z</time>
      </trkpt>
      <trkpt lat="48.2793" lon="2.97254">
        <ele>95.114501953125</ele>
        <time>2017-03-05T15:45:45Z</time>
      </trkpt>
      <trkpt lat="48.27914" lon="2.97268">
        <ele>96.716491699219</ele>
        <time>2017-03-05T15:45:47Z</time>
      </trkpt>
      <trkpt lat="48.27906" lon="2.97293">
        <ele>97.779632568359</ele>
        <time>2017-03-05T15:45:52Z</time>
      </trkpt>
      <trkpt lat="48.2789" lon="2.97317">
        <ele>99.52725982666</ele>
        <time>2017-03-05T15:45:57Z</time>
      </trkpt>
      <trkpt lat="48.27877" lon="2.9733">
        <ele>100.49858856201</ele>
        <time>2017-03-05T15:46:03Z</time>
      </trkpt>
      <trkpt lat="48.2785" lon="2.97353">
        <ele>102.17462158203</ele>
        <time>2017-03-05T15:46:07Z</time>
      </trkpt>
      <trkpt lat="48.27828" lon="2.97369">
        <ele>103.54359436035</ele>
        <time>2017-03-05T15:46:15Z</time>
      </trkpt>
      <trkpt lat="48.27814" lon="2.97381">
        <ele>104.38828277588</ele>
        <time>2017-03-05T15:46:22Z</time>
      </trkpt>
      <trkpt lat="48.27808" lon="2.97381">
        <ele>104.82518768311</ele>
        <time>2017-03-05T15:46:26Z</time>
      </trkpt>
      <trkpt lat="48.27808" lon="2.97381">
        <ele>104.82518768311</ele>
        <time>2017-03-05T15:46:28Z</time>
      </trkpt>
      <trkpt lat="48.27804" lon="2.97381">
        <ele>105.10698699951</ele>
        <time>2017-03-05T15:46:28Z</time>
      </trkpt>
      <trkpt lat="48.27789" lon="2.97372">
        <ele>106.01955413818</ele>
        <time>2017-03-05T15:46:29Z</time>
      </trkpt>
      <trkpt lat="48.27722" lon="2.97324">
        <ele>108.51863098145</ele>
        <time>2017-03-05T15:46:33Z</time>
      </trkpt>
      <trkpt lat="48.27698" lon="2.97312">
        <ele>108.90768432617</ele>
        <time>2017-03-05T15:46:53Z</time>
      </trkpt>
      <trkpt lat="48.27678" lon="2.97309">
        <ele>109.41934967041</ele>
        <time>2017-03-05T15:47:00Z</time>
      </trkpt>
      <trkpt lat="48.2766" lon="2.97312">
        <ele>110.05888366699</ele>
        <time>2017-03-05T15:47:05Z</time>
      </trkpt>
      <trkpt lat="48.27629" lon="2.97324">
        <ele>111.1975479126</ele>
        <time>2017-03-05T15:47:10Z</time>
      </trkpt>
      <trkpt lat="48.27595" lon="2.97337">
        <ele>112.06678771973</ele>
        <time>2017-03-05T15:47:19Z</time>
      </trkpt>
      <trkpt lat="48.27582" lon="2.97337">
        <ele>112.30986785889</ele>
        <time>2017-03-05T15:47:28Z</time>
      </trkpt>
      <trkpt lat="48.27531" lon="2.97322">
        <ele>113.04850769043</ele>
        <time>2017-03-05T15:47:31Z</time>
      </trkpt>
      <trkpt lat="48.27518" lon="2.97319">
        <ele>113.19518280029</ele>
        <time>2017-03-05T15:47:45Z</time>
      </trkpt>
      <trkpt lat="48.27495" lon="2.9732">
        <ele>113.54470825195</ele>
        <time>2017-03-05T15:47:49Z</time>
      </trkpt>
      <trkpt lat="48.27458" lon="2.97325">
        <ele>114.15637969971</ele>
        <time>2017-03-05T15:47:55Z</time>
      </trkpt>
      <trkpt lat="48.27417" lon="2.97327">
        <ele>114.78261566162</ele>
        <time>2017-03-05T15:48:05Z</time>
      </trkpt>
      <trkpt lat="48.27313" lon="2.97346">
        <ele>116.63989257812</ele>
        <time>2017-03-05T15:48:16Z</time>
      </trkpt>
      <trkpt lat="48.27277" lon="2.9735">
        <ele>117.47980499268</ele>
        <time>2017-03-05T15:48:44Z</time>
      </trkpt>
      <trkpt lat="48.27277" lon="2.9735">
        <ele>117.47980499268</ele>
        <time>2017-03-05T15:48:54Z</time>
      </trkpt>
      <trkpt lat="48.27258" lon="2.97352">
        <ele>117.94454956055</ele>
        <time>2017-03-05T15:48:54Z</time>
      </trkpt>
      <trkpt lat="48.27235" lon="2.97358">
        <ele>118.35342407227</ele>
        <time>2017-03-05T15:48:59Z</time>
      </trkpt>
      <trkpt lat="48.27216" lon="2.97371">
        <ele>119.0034866333</ele>
        <time>2017-03-05T15:49:05Z</time>
      </trkpt>
      <trkpt lat="48.27195" lon="2.9739">
        <ele>119.93322753906</ele>
        <time>2017-03-05T15:49:11Z</time>
      </trkpt>
      <trkpt lat="48.27171" lon="2.97415">
        <ele>120.64684295654</ele>
        <time>2017-03-05T15:49:18Z</time>
      </trkpt>
      <trkpt lat="48.27153" lon="2.97429">
        <ele>121.11287689209</ele>
        <time>2017-03-05T15:49:26Z</time>
      </trkpt>
      <trkpt lat="48.27142" lon="2.97435">
        <ele>121.36045837402</ele>
        <time>2017-03-05T15:49:31Z</time>
      </trkpt>
      <trkpt lat="48.27121" lon="2.97442">
        <ele>121.76823425293</ele>
        <time>2017-03-05T15:49:34Z</time>
      </trkpt>
      <trkpt lat="48.27007" lon="2.97467">
        <ele>121.4254989624</ele>
        <time>2017-03-05T15:49:40Z</time>
      </trkpt>
      <trkpt lat="48.26935" lon="2.97483">
        <ele>121.68255615234</ele>
        <time>2017-03-05T15:50:11Z</time>
      </trkpt>
      <trkpt lat="48.26912" lon="2.97487">
        <ele>121.93640136719</ele>
        <time>2017-03-05T15:50:30Z</time>
      </trkpt>
      <trkpt lat="48.26889" lon="2.97488">
        <ele>121.45952606201</ele>
        <time>2017-03-05T15:50:36Z</time>
      </trkpt>
      <trkpt lat="48.26826" lon="2.97488">
        <ele>121.21176147461</ele>
        <time>2017-03-05T15:50:42Z</time>
      </trkpt>
      <trkpt lat="48.26744" lon="2.97489">
        <ele>125.2799911499</ele>
        <time>2017-03-05T15:50:59Z</time>
      </trkpt>
      <trkpt lat="48.26692" lon="2.9749">
        <ele>128.4326171875</ele>
        <time>2017-03-05T15:51:21Z</time>
      </trkpt>
      <trkpt lat="48.26668" lon="2.9749">
        <ele>130.01821899414</ele>
        <time>2017-03-05T15:51:35Z</time>
      </trkpt>
      <trkpt lat="48.26666" lon="2.97493">
        <ele>130.27026367188</ele>
        <time>2017-03-05T15:51:41Z</time>
      </trkpt>
      <trkpt lat="48.26654" lon="2.97525">
        <ele>132.59288024902</ele>
        <time>2017-03-05T15:51:42Z</time>
      </trkpt>
      <trkpt lat="48.26627" lon="2.97564">
        <ele>136.90451049805</ele>
        <time>2017-03-05T15:51:49Z</time>
      </trkpt>
      <trkpt lat="48.2661" lon="2.97578">
        <ele>139.47625732422</ele>
        <time>2017-03-05T15:51:59Z</time>
      </trkpt>
      <trkpt lat="48.26589" lon="2.97602">
        <ele>142.9527130127</ele>
        <time>2017-03-05T15:52:04Z</time>
      </trkpt>
      <trkpt lat="48.26568" lon="2.97624">
        <ele>145.94897460938</ele>
        <time>2017-03-05T15:52:11Z</time>
      </trkpt>
      <trkpt lat="48.26546" lon="2.97662">
        <ele>148.02732849121</ele>
        <time>2017-03-05T15:52:18Z</time>
      </trkpt>
      <trkpt lat="48.26519" lon="2.97699">
        <ele>150.6806640625</ele>
        <time>2017-03-05T15:52:27Z</time>
      </trkpt>
      <trkpt lat="48.26493" lon="2.97721">
        <ele>152.6414642334</ele>
        <time>2017-03-05T15:52:37Z</time>
      </trkpt>
      <trkpt lat="48.26483" lon="2.97743">
        <ele>152.85180664062</ele>
        <time>2017-03-05T15:52:45Z</time>
      </trkpt>
      <trkpt lat="48.26477" lon="2.97781">
        <ele>152.50045776367</ele>
        <time>2017-03-05T15:52:50Z</time>
      </trkpt>
      <trkpt lat="48.26477" lon="2.97781">
        <ele>152.50045776367</ele>
        <time>2017-03-05T15:52:57Z</time>
      </trkpt>
      <trkpt lat="48.2646" lon="2.97778">
        <ele>152.70446777344</ele>
        <time>2017-03-05T15:52:57Z</time>
      </trkpt>
      <trkpt lat="48.26446" lon="2.97778">
        <ele>152.8484954834</ele>
        <time>2017-03-05T15:53:02Z</time>
      </trkpt>
      <trkpt lat="48.26432" lon="2.97774">
        <ele>152.99314880371</ele>
        <time>2017-03-05T15:53:06Z</time>
      </trkpt>
      <trkpt lat="48.26403" lon="2.97766">
        <ele>153.21893310547</ele>
        <time>2017-03-05T15:53:10Z</time>
      </trkpt>
      <trkpt lat="48.26386" lon="2.97766">
        <ele>153.35057067871</ele>
        <time>2017-03-05T15:53:18Z</time>
      </trkpt>
      <trkpt lat="48.26368" lon="2.97771">
        <ele>153.5570526123</ele>
        <time>2017-03-05T15:53:23Z</time>
      </trkpt>
      <trkpt lat="48.26357" lon="2.97773">
        <ele>153.58186340332</ele>
        <time>2017-03-05T15:53:28Z</time>
      </trkpt>
      <trkpt lat="48.26343" lon="2.97781">
        <ele>153.53590393066</ele>
        <time>2017-03-05T15:53:31Z</time>
      </trkpt>
      <trkpt lat="48.26316" lon="2.978">
        <ele>153.33079528809</ele>
        <time>2017-03-05T15:53:35Z</time>
      </trkpt>
      <trkpt lat="48.26292" lon="2.97823">
        <ele>153.37205505371</ele>
        <time>2017-03-05T15:53:43Z</time>
      </trkpt>
      <trkpt lat="48.26268" lon="2.97859">
        <ele>154.22091674805</ele>
        <time>2017-03-05T15:53:51Z</time>
      </trkpt>
      <trkpt lat="48.26242" lon="2.97892">
        <ele>155.8565826416</ele>
        <time>2017-03-05T15:54:00Z</time>
      </trkpt>
      <trkpt lat="48.26232" lon="2.979">
        <ele>156.35174560547</ele>
        <time>2017-03-05T15:54:09Z</time>
      </trkpt>
      <trkpt lat="48.26221" lon="2.97905">
        <ele>156.59872436523</ele>
        <time>2017-03-05T15:54:12Z</time>
      </trkpt>
      <trkpt lat="48.26197" lon="2.9791">
        <ele>156.36851501465</ele>
        <time>2017-03-05T15:54:15Z</time>
      </trkpt>
      <trkpt lat="48.26168" lon="2.97924">
        <ele>156.10884094238</ele>
        <time>2017-03-05T15:54:21Z</time>
      </trkpt>
      <trkpt lat="48.26144" lon="2.97939">
        <ele>155.90921020508</ele>
        <time>2017-03-05T15:54:29Z</time>
      </trkpt>
      <trkpt lat="48.26132" lon="2.97942">
        <ele>155.79722595215</ele>
        <time>2017-03-05T15:54:36Z</time>
      </trkpt>
      <trkpt lat="48.2612" lon="2.97942">
        <ele>155.6058807373</ele>
        <time>2017-03-05T15:54:39Z</time>
      </trkpt>
      <trkpt lat="48.26115" lon="2.97939">
        <ele>155.4652557373</ele>
        <time>2017-03-05T15:54:42Z</time>
      </trkpt>
      <trkpt lat="48.26109" lon="2.9793">
        <ele>155.33744812012</ele>
        <time>2017-03-05T15:54:43Z</time>
      </trkpt>
      <trkpt lat="48.26097" lon="2.97918">
        <ele>155.31932067871</ele>
        <time>2017-03-05T15:54:45Z</time>
      </trkpt>
      <trkpt lat="48.26088" lon="2.97918">
        <ele>155.25500488281</ele>
        <time>2017-03-05T15:54:49Z</time>
      </trkpt>
      <trkpt lat="48.26059" lon="2.97922">
        <ele>155.53523254395</ele>
        <time>2017-03-05T15:54:51Z</time>
      </trkpt>
      <trkpt lat="48.2604" lon="2.97928">
        <ele>155.73123168945</ele>
        <time>2017-03-05T15:54:59Z</time>
      </trkpt>
      <trkpt lat="48.26002" lon="2.97936">
        <ele>156.01496887207</ele>
        <time>2017-03-05T15:55:04Z</time>
      </trkpt>
      <trkpt lat="48.25958" lon="2.97948">
        <ele>156.36450195312</ele>
        <time>2017-03-05T15:55:14Z</time>
      </trkpt>
      <trkpt lat="48.25938" lon="2.97949">
        <ele>156.20979309082</ele>
        <time>2017-03-05T15:55:26Z</time>
      </trkpt>
      <trkpt lat="48.25926" lon="2.97948">
        <ele>156.00590515137</ele>
        <time>2017-03-05T15:55:31Z</time>
      </trkpt>
      <trkpt lat="48.25909" lon="2.97943">
        <ele>155.61268615723</ele>
        <time>2017-03-05T15:55:34Z</time>
      </trkpt>
      <trkpt lat="48.2588" lon="2.97926">
        <ele>154.74778747559</ele>
        <time>2017-03-05T15:55:39Z</time>
      </trkpt>
      <trkpt lat="48.25868" lon="2.97922">
        <ele>153.99047851562</ele>
        <time>2017-03-05T15:55:47Z</time>
      </trkpt>
      <trkpt lat="48.25846" lon="2.97921">
        <ele>152.6943359375</ele>
        <time>2017-03-05T15:55:50Z</time>
      </trkpt>
      <trkpt lat="48.25729" lon="2.97932">
        <ele>146.27795410156</ele>
        <time>2017-03-05T15:55:56Z</time>
      </trkpt>
      <trkpt lat="48.25616" lon="2.97948">
        <ele>143.30895996094</ele>
        <time>2017-03-05T15:56:27Z</time>
      </trkpt>
      <trkpt lat="48.25604" lon="2.97952">
        <ele>143.28855895996</ele>
        <time>2017-03-05T15:56:57Z</time>
      </trkpt>
      <trkpt lat="48.25607" lon="2.97957">
        <ele>143.31768798828</ele>
        <time>2017-03-05T15:57:00Z</time>
      </trkpt>
      <trkpt lat="48.25607" lon="2.97957">
        <ele>143.31768798828</ele>
        <time>2017-03-05T15:57:01Z</time>
      </trkpt>
      <trkpt lat="48.25672" lon="2.98059">
        <ele>144.98838806152</ele>
        <time>2017-03-05T15:57:01Z</time>
      </trkpt>
      <trkpt lat="48.25718" lon="2.98116">
        <ele>148.07768249512</ele>
        <time>2017-03-05T15:57:26Z</time>
      </trkpt>
      <trkpt lat="48.2573" lon="2.98131">
        <ele>148.99517822266</ele>
        <time>2017-03-05T15:57:42Z</time>
      </trkpt>
      <trkpt lat="48.25744" lon="2.98156">
        <ele>150.3863067627</ele>
        <time>2017-03-05T15:57:46Z</time>
      </trkpt>
      <trkpt lat="48.25759" lon="2.98181">
        <ele>151.86782836914</ele>
        <time>2017-03-05T15:57:52Z</time>
      </trkpt>
      <trkpt lat="48.25778" lon="2.98214">
        <ele>153.54145812988</ele>
        <time>2017-03-05T15:57:58Z</time>
      </trkpt>
      <trkpt lat="48.25781" lon="2.98238">
        <ele>154.20964050293</ele>
        <time>2017-03-05T15:58:06Z</time>
      </trkpt>
      <trkpt lat="48.25786" lon="2.9828">
        <ele>155.39958190918</ele>
        <time>2017-03-05T15:58:10Z</time>
      </trkpt>
      <trkpt lat="48.25801" lon="2.98306">
        <ele>155.95875549316</ele>
        <time>2017-03-05T15:58:18Z</time>
      </trkpt>
      <trkpt lat="48.2582" lon="2.98349">
        <ele>156.13079833984</ele>
        <time>2017-03-05T15:58:24Z</time>
      </trkpt>
      <trkpt lat="48.25835" lon="2.9838">
        <ele>155.36088562012</ele>
        <time>2017-03-05T15:58:33Z</time>
      </trkpt>
      <trkpt lat="48.25855" lon="2.98412">
        <ele>154.96636962891</ele>
        <time>2017-03-05T15:58:40Z</time>
      </trkpt>
      <trkpt lat="48.25879" lon="2.98457">
        <ele>155.2756652832</ele>
        <time>2017-03-05T15:58:48Z</time>
      </trkpt>
      <trkpt lat="48.25913" lon="2.98538">
        <ele>156.67890930176</ele>
        <time>2017-03-05T15:58:58Z</time>
      </trkpt>
      <trkpt lat="48.25915" lon="2.98548">
        <ele>156.88279724121</ele>
        <time>2017-03-05T15:59:15Z</time>
      </trkpt>
      <trkpt lat="48.25915" lon="2.98548">
        <ele>156.88279724121</ele>
        <time>2017-03-05T15:59:17Z</time>
      </trkpt>
      <trkpt lat="48.25914" lon="2.98553">
        <ele>156.92649841309</ele>
        <time>2017-03-05T15:59:17Z</time>
      </trkpt>
      <trkpt lat="48.25919" lon="2.98552">
        <ele>157.05757141113</ele>
        <time>2017-03-05T15:59:18Z</time>
      </trkpt>
      <trkpt lat="48.25924" lon="2.98554">
        <ele>157.22930908203</ele>
        <time>2017-03-05T15:59:19Z</time>
      </trkpt>
      <trkpt lat="48.25928" lon="2.98561">
        <ele>157.41464233398</ele>
        <time>2017-03-05T15:59:20Z</time>
      </trkpt>
      <trkpt lat="48.25932" lon="2.98594">
        <ele>157.88778686523</ele>
        <time>2017-03-05T15:59:22Z</time>
      </trkpt>
      <trkpt lat="48.25936" lon="2.98631">
        <ele>158.33361816406</ele>
        <time>2017-03-05T15:59:28Z</time>
      </trkpt>
      <trkpt lat="48.25947" lon="2.98652">
        <ele>158.8187713623</ele>
        <time>2017-03-05T15:59:35Z</time>
      </trkpt>
      <trkpt lat="48.25957" lon="2.98683">
        <ele>159.1752166748</ele>
        <time>2017-03-05T15:59:40Z</time>
      </trkpt>
      <trkpt lat="48.25989" lon="2.98757">
        <ele>159.69253540039</ele>
        <time>2017-03-05T15:59:46Z</time>
      </trkpt>
      <trkpt lat="48.26021" lon="2.9882">
        <ele>159.30854797363</ele>
        <time>2017-03-05T16:00:02Z</time>
      </trkpt>
      <trkpt lat="48.26037" lon="2.98867">
        <ele>160.19400024414</ele>
        <time>2017-03-05T16:00:16Z</time>
      </trkpt>
      <trkpt lat="48.26073" lon="2.98968">
        <ele>160.53549194336</ele>
        <time>2017-03-05T16:00:25Z</time>
      </trkpt>
      <trkpt lat="48.2608" lon="2.9898">
        <ele>160.58108520508</ele>
        <time>2017-03-05T16:00:45Z</time>
      </trkpt>
      <trkpt lat="48.2608" lon="2.98984">
        <ele>160.5295715332</ele>
        <time>2017-03-05T16:00:48Z</time>
      </trkpt>
      <trkpt lat="48.2608" lon="2.98984">
        <ele>160.5295715332</ele>
        <time>2017-03-05T16:00:49Z</time>
      </trkpt>
      <trkpt lat="48.2608" lon="2.9898">
        <ele>160.58108520508</ele>
        <time>2017-03-05T16:00:49Z</time>
      </trkpt>
      <trkpt lat="48.26096" lon="2.98996">
        <ele>160.49006652832</ele>
        <time>2017-03-05T16:00:50Z</time>
      </trkpt>
      <trkpt lat="48.26141" lon="2.99037">
        <ele>159.95803833008</ele>
        <time>2017-03-05T16:00:55Z</time>
      </trkpt>
      <trkpt lat="48.26187" lon="2.99081">
        <ele>157.1047668457</ele>
        <time>2017-03-05T16:01:09Z</time>
      </trkpt>
      <trkpt lat="48.26236" lon="2.99141">
        <ele>152.28143310547</ele>
        <time>2017-03-05T16:01:24Z</time>
      </trkpt>
      <trkpt lat="48.2628" lon="2.99202">
        <ele>146.53175354004</ele>
        <time>2017-03-05T16:01:41Z</time>
      </trkpt>
      <trkpt lat="48.26313" lon="2.99254">
        <ele>141.22932434082</ele>
        <time>2017-03-05T16:01:57Z</time>
      </trkpt>
      <trkpt lat="48.26342" lon="2.99305">
        <ele>136.22758483887</ele>
        <time>2017-03-05T16:02:10Z</time>
      </trkpt>
      <trkpt lat="48.26369" lon="2.99358">
        <ele>133.07066345215</ele>
        <time>2017-03-05T16:02:22Z</time>
      </trkpt>
      <trkpt lat="48.26389" lon="2.99387">
        <ele>132.17782592773</ele>
        <time>2017-03-05T16:02:34Z</time>
      </trkpt>
      <trkpt lat="48.26412" lon="2.99416">
        <ele>131.15748596191</ele>
        <time>2017-03-05T16:02:41Z</time>
      </trkpt>
      <trkpt lat="48.2644" lon="2.99449">
        <ele>129.98393249512</ele>
        <time>2017-03-05T16:02:49Z</time>
      </trkpt>
      <trkpt lat="48.26453" lon="2.99461">
        <ele>129.79411315918</ele>
        <time>2017-03-05T16:02:59Z</time>
      </trkpt>
      <trkpt lat="48.26485" lon="2.99488">
        <ele>128.56784057617</ele>
        <time>2017-03-05T16:03:03Z</time>
      </trkpt>
      <trkpt lat="48.26504" lon="2.99516">
        <ele>127.05596923828</ele>
        <time>2017-03-05T16:03:13Z</time>
      </trkpt>
      <trkpt lat="48.26504" lon="2.99516">
        <ele>127.05596923828</ele>
        <time>2017-03-05T16:03:20Z</time>
      </trkpt>
      <trkpt lat="48.2654" lon="2.99571">
        <ele>126.1501159668</ele>
        <time>2017-03-05T16:03:20Z</time>
      </trkpt>
      <trkpt lat="48.26584" lon="2.99614">
        <ele>124.92479705811</ele>
        <time>2017-03-05T16:03:34Z</time>
      </trkpt>
      <trkpt lat="48.26641" lon="2.99667">
        <ele>122.49984741211</ele>
        <time>2017-03-05T16:03:48Z</time>
      </trkpt>
      <trkpt lat="48.26698" lon="2.99722">
        <ele>119.21513366699</ele>
        <time>2017-03-05T16:04:06Z</time>
      </trkpt>
      <trkpt lat="48.26737" lon="2.99776">
        <ele>116.92670440674</ele>
        <time>2017-03-05T16:04:24Z</time>
      </trkpt>
      <trkpt lat="48.26754" lon="2.998">
        <ele>115.7921295166</ele>
        <time>2017-03-05T16:04:38Z</time>
      </trkpt>
      <trkpt lat="48.26767" lon="2.99815">
        <ele>115.00071716309</ele>
        <time>2017-03-05T16:04:44Z</time>
      </trkpt>
      <trkpt lat="48.26782" lon="2.9983">
        <ele>114.06610870361</ele>
        <time>2017-03-05T16:04:48Z</time>
      </trkpt>
      <trkpt lat="48.26797" lon="2.99842">
        <ele>113.08225250244</ele>
        <time>2017-03-05T16:04:53Z</time>
      </trkpt>
      <trkpt lat="48.2682" lon="2.99855">
        <ele>111.45971679688</ele>
        <time>2017-03-05T16:04:58Z</time>
      </trkpt>
      <trkpt lat="48.26833" lon="2.99863">
        <ele>110.47622680664</ele>
        <time>2017-03-05T16:05:05Z</time>
      </trkpt>
      <trkpt lat="48.26864" lon="2.99891">
        <ele>108.59475708008</ele>
        <time>2017-03-05T16:05:09Z</time>
      </trkpt>
      <trkpt lat="48.26881" lon="2.99909">
        <ele>107.56016540527</ele>
        <time>2017-03-05T16:05:19Z</time>
      </trkpt>
      <trkpt lat="48.26896" lon="2.99937">
        <ele>106.20015716553</ele>
        <time>2017-03-05T16:05:25Z</time>
      </trkpt>
      <trkpt lat="48.26939" lon="3.00009">
        <ele>102.8927230835</ele>
        <time>2017-03-05T16:05:31Z</time>
      </trkpt>
      <trkpt lat="48.26947" lon="3.00035">
        <ele>101.47805786133</ele>
        <time>2017-03-05T16:05:48Z</time>
      </trkpt>
      <trkpt lat="48.26947" lon="3.00035">
        <ele>101.47805786133</ele>
        <time>2017-03-05T16:05:53Z</time>
      </trkpt>
      <trkpt lat="48.26962" lon="3.00032">
        <ele>101.52841949463</ele>
        <time>2017-03-05T16:05:53Z</time>
      </trkpt>
      <trkpt lat="48.26998" lon="3.00017">
        <ele>101.37631225586</ele>
        <time>2017-03-05T16:05:57Z</time>
      </trkpt>
      <trkpt lat="48.27033" lon="2.99995">
        <ele>100.72105407715</ele>
        <time>2017-03-05T16:06:07Z</time>
      </trkpt>
      <trkpt lat="48.27037" lon="2.99998">
        <ele>100.45366668701</ele>
        <time>2017-03-05T16:06:17Z</time>
      </trkpt>
      <trkpt lat="48.27096" lon="3.00193">
        <ele>96</ele>
        <time>2017-03-05T16:06:18Z</time>
      </trkpt>
      <trkpt lat="48.27113" lon="3.00255">
        <ele>97.504829406738</ele>
        <time>2017-03-05T16:06:56Z</time>
      </trkpt>
      <trkpt lat="48.27123" lon="3.00292">
        <ele>98.759666442871</ele>
        <time>2017-03-05T16:07:08Z</time>
      </trkpt>
      <trkpt lat="48.27128" lon="3.00337">
        <ele>100.3821105957</ele>
        <time>2017-03-05T16:07:15Z</time>
      </trkpt>
      <trkpt lat="48.2713" lon="3.00361">
        <ele>101.82422637939</ele>
        <time>2017-03-05T16:07:23Z</time>
      </trkpt>
      <trkpt lat="48.2713" lon="3.00361">
        <ele>101.82422637939</ele>
        <time>2017-03-05T16:07:27Z</time>
      </trkpt>
      <trkpt lat="48.27144" lon="3.00363">
        <ele>102.55240631104</ele>
        <time>2017-03-05T16:07:27Z</time>
      </trkpt>
      <trkpt lat="48.27166" lon="3.00376">
        <ele>104.27090454102</ele>
        <time>2017-03-05T16:07:31Z</time>
      </trkpt>
      <trkpt lat="48.27182" lon="3.00392">
        <ele>105.90202331543</ele>
        <time>2017-03-05T16:07:37Z</time>
      </trkpt>
      <trkpt lat="48.27198" lon="3.00411">
        <ele>107.65561676025</ele>
        <time>2017-03-05T16:07:42Z</time>
      </trkpt>
      <trkpt lat="48.27198" lon="3.00411">
        <ele>107.65561676025</ele>
        <time>2017-03-05T16:07:47Z</time>
      </trkpt>
      <trkpt lat="48.27209" lon="3.00405">
        <ele>107.85043334961</ele>
        <time>2017-03-05T16:07:47Z</time>
      </trkpt>
      <trkpt lat="48.27216" lon="3.00404">
        <ele>108.10782623291</ele>
        <time>2017-03-05T16:07:50Z</time>
      </trkpt>
      <trkpt lat="48.27228" lon="3.00401">
        <ele>108.49238586426</ele>
        <time>2017-03-05T16:07:52Z</time>
      </trkpt>
      <trkpt lat="48.27247" lon="3.00386">
        <ele>108.66673278809</ele>
        <time>2017-03-05T16:07:55Z</time>
      </trkpt>
      <trkpt lat="48.27266" lon="3.00376">
        <ele>109.16902923584</ele>
        <time>2017-03-05T16:08:01Z</time>
      </trkpt>
      <trkpt lat="48.27288" lon="3.0037">
        <ele>110.05632019043</ele>
        <time>2017-03-05T16:08:06Z</time>
      </trkpt>
      <trkpt lat="48.27308" lon="3.00373">
        <ele>111.18633270264</ele>
        <time>2017-03-05T16:08:12Z</time>
      </trkpt>
      <trkpt lat="48.27336" lon="3.00382">
        <ele>112.96397399902</ele>
        <time>2017-03-05T16:08:17Z</time>
      </trkpt>
      <trkpt lat="48.27388" lon="3.00403">
        <ele>116.60486602783</ele>
        <time>2017-03-05T16:08:25Z</time>
      </trkpt>
      <trkpt lat="48.27411" lon="3.00412">
        <ele>117.93856811523</ele>
        <time>2017-03-05T16:08:39Z</time>
      </trkpt>
      <trkpt lat="48.27432" lon="3.00423">
        <ele>119.17646789551</ele>
        <time>2017-03-05T16:08:45Z</time>
      </trkpt>
      <trkpt lat="48.27477" lon="3.00449">
        <ele>121.53137207031</ele>
        <time>2017-03-05T16:08:51Z</time>
      </trkpt>
      <trkpt lat="48.27523" lon="3.00476">
        <ele>122.89821624756</ele>
        <time>2017-03-05T16:09:04Z</time>
      </trkpt>
      <trkpt lat="48.27576" lon="3.00504">
        <ele>122.46241760254</ele>
        <time>2017-03-05T16:09:17Z</time>
      </trkpt>
      <trkpt lat="48.2763" lon="3.00528">
        <ele>120.73845672607</ele>
        <time>2017-03-05T16:09:32Z</time>
      </trkpt>
      <trkpt lat="48.27665" lon="3.00537">
        <ele>119.20674133301</ele>
        <time>2017-03-05T16:09:47Z</time>
      </trkpt>
      <trkpt lat="48.27716" lon="3.00546">
        <ele>116.85643768311</ele>
        <time>2017-03-05T16:09:56Z</time>
      </trkpt>
      <trkpt lat="48.27772" lon="3.00566">
        <ele>114.2759552002</ele>
        <time>2017-03-05T16:10:10Z</time>
      </trkpt>
      <trkpt lat="48.27826" lon="3.00586">
        <ele>111.62676239014</ele>
        <time>2017-03-05T16:10:25Z</time>
      </trkpt>
      <trkpt lat="48.27844" lon="3.00587">
        <ele>110.48193359375</ele>
        <time>2017-03-05T16:10:40Z</time>
      </trkpt>
      <trkpt lat="48.27853" lon="3.00583">
        <ele>109.86614990234</ele>
        <time>2017-03-05T16:10:45Z</time>
      </trkpt>
      <trkpt lat="48.27865" lon="3.00573">
        <ele>108.96154022217</ele>
        <time>2017-03-05T16:10:48Z</time>
      </trkpt>
      <trkpt lat="48.27893" lon="3.00549">
        <ele>106.91036987305</ele>
        <time>2017-03-05T16:10:52Z</time>
      </trkpt>
      <trkpt lat="48.27941" lon="3.00518">
        <ele>103.66269683838</ele>
        <time>2017-03-05T16:11:01Z</time>
      </trkpt>
      <trkpt lat="48.27975" lon="3.00493">
        <ele>101.80010223389</ele>
        <time>2017-03-05T16:11:15Z</time>
      </trkpt>
      <trkpt lat="48.2802" lon="3.00444">
        <ele>99.25789642334</ele>
        <time>2017-03-05T16:11:25Z</time>
      </trkpt>
      <trkpt lat="48.28058" lon="3.00414">
        <ele>97.714164733887</ele>
        <time>2017-03-05T16:11:40Z</time>
      </trkpt>
      <trkpt lat="48.28078" lon="3.00404">
        <ele>97.033874511719</ele>
        <time>2017-03-05T16:11:51Z</time>
      </trkpt>
      <trkpt lat="48.28113" lon="3.00385">
        <ele>98.636253356934</ele>
        <time>2017-03-05T16:11:57Z</time>
      </trkpt>
      <trkpt lat="48.28147" lon="3.00359">
        <ele>100.6570892334</ele>
        <time>2017-03-05T16:12:07Z</time>
      </trkpt>
      <trkpt lat="48.28159" lon="3.00344">
        <ele>101.2718963623</ele>
        <time>2017-03-05T16:12:17Z</time>
      </trkpt>
      <trkpt lat="48.28161" lon="3.00343">
        <ele>101.3436050415</ele>
        <time>2017-03-05T16:12:21Z</time>
      </trkpt>
      <trkpt lat="48.28161" lon="3.00358">
        <ele>101.20858764648</ele>
        <time>2017-03-05T16:12:22Z</time>
      </trkpt>
      <trkpt lat="48.28161" lon="3.00358">
        <ele>101.20858764648</ele>
        <time>2017-03-05T16:12:25Z</time>
      </trkpt>
      <trkpt lat="48.28166" lon="3.00284">
        <ele>100.73026275635</ele>
        <time>2017-03-05T16:12:25Z</time>
      </trkpt>
      <trkpt lat="48.28189" lon="2.99976">
        <ele>101.96556091309</ele>
        <time>2017-03-05T16:12:38Z</time>
      </trkpt>
      <trkpt lat="48.28198" lon="2.99869">
        <ele>105.21542358398</ele>
        <time>2017-03-05T16:13:33Z</time>
      </trkpt>
      <trkpt lat="48.28198" lon="2.99869">
        <ele>105.21542358398</ele>
        <time>2017-03-05T16:13:52Z</time>
      </trkpt>
      <trkpt lat="48.28201" lon="2.99856">
        <ele>105.92154693604</ele>
        <time>2017-03-05T16:13:52Z</time>
      </trkpt>
      <trkpt lat="48.28207" lon="2.99854">
        <ele>106.4153213501</ele>
        <time>2017-03-05T16:13:54Z</time>
      </trkpt>
      <trkpt lat="48.28207" lon="2.99904">
        <ele>104.39170837402</ele>
        <time>2017-03-05T16:13:56Z</time>
      </trkpt>
      <trkpt lat="48.28212" lon="2.99943">
        <ele>103.51392364502</ele>
        <time>2017-03-05T16:14:05Z</time>
      </trkpt>
      <trkpt lat="48.28221" lon="2.99968">
        <ele>103.55477142334</ele>
        <time>2017-03-05T16:14:12Z</time>
      </trkpt>
      <trkpt lat="48.28232" lon="2.99987">
        <ele>103.60018920898</ele>
        <time>2017-03-05T16:14:17Z</time>
      </trkpt>
      <trkpt lat="48.28246" lon="3.00002">
        <ele>103.76191711426</ele>
        <time>2017-03-05T16:14:21Z</time>
      </trkpt>
      <trkpt lat="48.2826" lon="3.0001">
        <ele>104.05319213867</ele>
        <time>2017-03-05T16:14:26Z</time>
      </trkpt>
      <trkpt lat="48.28275" lon="3.00016">
        <ele>104.40271759033</ele>
        <time>2017-03-05T16:14:30Z</time>
      </trkpt>
      <trkpt lat="48.28347" lon="3.00023">
        <ele>106.39792633057</ele>
        <time>2017-03-05T16:14:34Z</time>
      </trkpt>
      <trkpt lat="48.28655" lon="3.00057">
        <ele>118.38535308838</ele>
        <time>2017-03-05T16:14:53Z</time>
      </trkpt>
      <trkpt lat="48.28681" lon="3.00068">
        <ele>118.87798309326</ele>
        <time>2017-03-05T16:16:16Z</time>
      </trkpt>
      <trkpt lat="48.28689" lon="3.00075">
        <ele>119.1983795166</ele>
        <time>2017-03-05T16:16:23Z</time>
      </trkpt>
      <trkpt lat="48.28695" lon="3.0007">
        <ele>119.14012145996</ele>
        <time>2017-03-05T16:16:25Z</time>
      </trkpt>
      <trkpt lat="48.28696" lon="3.00062">
        <ele>118.98246002197</ele>
        <time>2017-03-05T16:16:27Z</time>
      </trkpt>
      <trkpt lat="48.28917" lon="3.00193">
        <ele>129.57836914062</ele>
        <time>2017-03-05T16:16:28Z</time>
      </trkpt>
      <trkpt lat="48.28919" lon="3.00195">
        <ele>129.66888427734</ele>
        <time>2017-03-05T16:17:31Z</time>
      </trkpt>
      <trkpt lat="48.2892" lon="3.00197">
        <ele>129.7183380127</ele>
        <time>2017-03-05T16:17:32Z</time>
      </trkpt>
      <trkpt lat="48.28923" lon="3.00197">
        <ele>129.84660339355</ele>
        <time>2017-03-05T16:17:32Z</time>
      </trkpt>
      <trkpt lat="48.2893" lon="3.00201">
        <ele>130.16862487793</ele>
        <time>2017-03-05T16:17:33Z</time>
      </trkpt>
      <trkpt lat="48.28968" lon="3.0023">
        <ele>131.83123779297</ele>
        <time>2017-03-05T16:17:35Z</time>
      </trkpt>
      <trkpt lat="48.29025" lon="3.00274">
        <ele>135.8822479248</ele>
        <time>2017-03-05T16:17:46Z</time>
      </trkpt>
      <trkpt lat="48.2908" lon="3.00341">
        <ele>139.82260131836</ele>
        <time>2017-03-05T16:18:03Z</time>
      </trkpt>
      <trkpt lat="48.29101" lon="3.00366">
        <ele>140.65698242188</ele>
        <time>2017-03-05T16:18:22Z</time>
      </trkpt>
      <trkpt lat="48.29133" lon="3.00409">
        <ele>142.03405761719</ele>
        <time>2017-03-05T16:18:29Z</time>
      </trkpt>
      <trkpt lat="48.29164" lon="3.00455">
        <ele>143.40303039551</ele>
        <time>2017-03-05T16:18:40Z</time>
      </trkpt>
      <trkpt lat="48.29185" lon="3.00486">
        <ele>144.02758789062</ele>
        <time>2017-03-05T16:18:52Z</time>
      </trkpt>
      <trkpt lat="48.29196" lon="3.00498">
        <ele>144.35211181641</ele>
        <time>2017-03-05T16:19:00Z</time>
      </trkpt>
      <trkpt lat="48.29232" lon="3.00514">
        <ele>146.80366516113</ele>
        <time>2017-03-05T16:19:04Z</time>
      </trkpt>
      <trkpt lat="48.29287" lon="3.0053">
        <ele>148</ele>
        <time>2017-03-05T16:19:14Z</time>
      </trkpt>
      <trkpt lat="48.29302" lon="3.00539">
        <ele>148</ele>
        <time>2017-03-05T16:19:29Z</time>
      </trkpt>
      <trkpt lat="48.29306" lon="3.00541">
        <ele>148</ele>
        <time>2017-03-05T16:19:33Z</time>
      </trkpt>
      <trkpt lat="48.2932" lon="3.00546">
        <ele>147.9128112793</ele>
        <time>2017-03-05T16:19:34Z</time>
      </trkpt>
      <trkpt lat="48.2936" lon="3.0057">
        <ele>147.21955871582</ele>
        <time>2017-03-05T16:19:38Z</time>
      </trkpt>
      <trkpt lat="48.29493" lon="3.00645">
        <ele>145.87054443359</ele>
        <time>2017-03-05T16:19:50Z</time>
      </trkpt>
      <trkpt lat="48.29616" lon="3.00713">
        <ele>142.57833862305</ele>
        <time>2017-03-05T16:20:28Z</time>
      </trkpt>
      <trkpt lat="48.29653" lon="3.00733">
        <ele>141.18115234375</ele>
        <time>2017-03-05T16:21:03Z</time>
      </trkpt>
      <trkpt lat="48.2968" lon="3.00741">
        <ele>140.68701171875</ele>
        <time>2017-03-05T16:21:14Z</time>
      </trkpt>
      <trkpt lat="48.29693" lon="3.00742">
        <ele>140.49768066406</ele>
        <time>2017-03-05T16:21:21Z</time>
      </trkpt>
      <trkpt lat="48.2975" lon="3.00752">
        <ele>139.33511352539</ele>
        <time>2017-03-05T16:21:24Z</time>
      </trkpt>
      <trkpt lat="48.29827" lon="3.00767">
        <ele>137.19984436035</ele>
        <time>2017-03-05T16:21:39Z</time>
      </trkpt>
      <trkpt lat="48.29872" lon="3.00776">
        <ele>136.40817260742</ele>
        <time>2017-03-05T16:22:00Z</time>
      </trkpt>
      <trkpt lat="48.299" lon="3.00779">
        <ele>136.62449645996</ele>
        <time>2017-03-05T16:22:12Z</time>
      </trkpt>
      <trkpt lat="48.29909" lon="3.00798">
        <ele>137.1344909668</ele>
        <time>2017-03-05T16:22:19Z</time>
      </trkpt>
      <trkpt lat="48.29916" lon="3.00787">
        <ele>136.92431640625</ele>
        <time>2017-03-05T16:22:23Z</time>
      </trkpt>
      <trkpt lat="48.29916" lon="3.00787">
        <ele>136.92431640625</ele>
        <time>2017-03-05T16:22:26Z</time>
      </trkpt>
      <trkpt lat="48.2992" lon="3.00781">
        <ele>136.79708862305</ele>
        <time>2017-03-05T16:22:26Z</time>
      </trkpt>
      <trkpt lat="48.2994" lon="3.00766">
        <ele>137.29612731934</ele>
        <time>2017-03-05T16:22:28Z</time>
      </trkpt>
      <trkpt lat="48.29946" lon="3.00757">
        <ele>137.83055114746</ele>
        <time>2017-03-05T16:22:34Z</time>
      </trkpt>
      <trkpt lat="48.29951" lon="3.00747">
        <ele>138.32334899902</ele>
        <time>2017-03-05T16:22:36Z</time>
      </trkpt>
      <trkpt lat="48.29957" lon="3.00724">
        <ele>138.98876953125</ele>
        <time>2017-03-05T16:22:38Z</time>
      </trkpt>
      <trkpt lat="48.29974" lon="3.00636">
        <ele>138.49061584473</ele>
        <time>2017-03-05T16:22:42Z</time>
      </trkpt>
      <trkpt lat="48.29978" lon="3.0062">
        <ele>137.95872497559</ele>
        <time>2017-03-05T16:22:58Z</time>
      </trkpt>
      <trkpt lat="48.29988" lon="3.00594">
        <ele>137.29164123535</ele>
        <time>2017-03-05T16:23:01Z</time>
      </trkpt>
      <trkpt lat="48.30008" lon="3.00555">
        <ele>136.32992553711</ele>
        <time>2017-03-05T16:23:06Z</time>
      </trkpt>
      <trkpt lat="48.30011" lon="3.00542">
        <ele>135.97250366211</ele>
        <time>2017-03-05T16:23:15Z</time>
      </trkpt>
      <trkpt lat="48.30011" lon="3.00542">
        <ele>135.97250366211</ele>
        <time>2017-03-05T16:23:17Z</time>
      </trkpt>
      <trkpt lat="48.30062" lon="3.00514">
        <ele>139.93801879883</ele>
        <time>2017-03-05T16:23:17Z</time>
      </trkpt>
      <trkpt lat="48.30145" lon="3.00491">
        <ele>144.95454406738</ele>
        <time>2017-03-05T16:23:32Z</time>
      </trkpt>
      <trkpt lat="48.30207" lon="3.00478">
        <ele>145.1001739502</ele>
        <time>2017-03-05T16:23:55Z</time>
      </trkpt>
      <trkpt lat="48.30207" lon="3.00478">
        <ele>145.1001739502</ele>
        <time>2017-03-05T16:24:12Z</time>
      </trkpt>
      <trkpt lat="48.3022" lon="3.00551">
        <ele>148.20967102051</ele>
        <time>2017-03-05T16:24:12Z</time>
      </trkpt>
      <trkpt lat="48.30222" lon="3.00582">
        <ele>149.38931274414</ele>
        <time>2017-03-05T16:24:25Z</time>
      </trkpt>
      <trkpt lat="48.30224" lon="3.00646">
        <ele>151.28497314453</ele>
        <time>2017-03-05T16:24:31Z</time>
      </trkpt>
      <trkpt lat="48.30223" lon="3.00767">
        <ele>153.22068786621</ele>
        <time>2017-03-05T16:24:42Z</time>
      </trkpt>
      <trkpt lat="48.30223" lon="3.00767">
        <ele>153.22068786621</ele>
        <time>2017-03-05T16:25:04Z</time>
      </trkpt>
      <trkpt lat="48.30473" lon="3.00835">
        <ele>148.87948608398</ele>
        <time>2017-03-05T16:25:04Z</time>
      </trkpt>
      <trkpt lat="48.30478" lon="3.00839">
        <ele>148.7611541748</ele>
        <time>2017-03-05T16:26:12Z</time>
      </trkpt>
      <trkpt lat="48.30478" lon="3.00839">
        <ele>148.7611541748</ele>
        <time>2017-03-05T16:26:14Z</time>
      </trkpt>
      <trkpt lat="48.30503" lon="3.00857">
        <ele>147.44926452637</ele>
        <time>2017-03-05T16:26:14Z</time>
      </trkpt>
      <trkpt lat="48.30518" lon="3.0087">
        <ele>146.82035827637</ele>
        <time>2017-03-05T16:26:21Z</time>
      </trkpt>
      <trkpt lat="48.30545" lon="3.00904">
        <ele>146.58094787598</ele>
        <time>2017-03-05T16:26:26Z</time>
      </trkpt>
      <trkpt lat="48.30554" lon="3.00921">
        <ele>146.7716217041</ele>
        <time>2017-03-05T16:26:35Z</time>
      </trkpt>
      <trkpt lat="48.30562" lon="3.00938">
        <ele>146.77925109863</ele>
        <time>2017-03-05T16:26:39Z</time>
      </trkpt>
      <trkpt lat="48.3057" lon="3.00951">
        <ele>146.71208190918</ele>
        <time>2017-03-05T16:26:43Z</time>
      </trkpt>
      <trkpt lat="48.30637" lon="3.01006">
        <ele>142.10639953613</ele>
        <time>2017-03-05T16:26:46Z</time>
      </trkpt>
      <trkpt lat="48.30772" lon="3.01118">
        <ele>129.58135986328</ele>
        <time>2017-03-05T16:27:06Z</time>
      </trkpt>
      <trkpt lat="48.30808" lon="3.01145">
        <ele>125.49858093262</ele>
        <time>2017-03-05T16:27:47Z</time>
      </trkpt>
      <trkpt lat="48.3083" lon="3.01157">
        <ele>123.61127471924</ele>
        <time>2017-03-05T16:27:58Z</time>
      </trkpt>
      <trkpt lat="48.30863" lon="3.01171">
        <ele>121.23632049561</ele>
        <time>2017-03-05T16:28:04Z</time>
      </trkpt>
      <trkpt lat="48.30975" lon="3.01227">
        <ele>115.41774749756</ele>
        <time>2017-03-05T16:28:13Z</time>
      </trkpt>
      <trkpt lat="48.31005" lon="3.01242">
        <ele>114.01628112793</ele>
        <time>2017-03-05T16:28:45Z</time>
      </trkpt>
      <trkpt lat="48.31026" lon="3.01258">
        <ele>112.86575317383</ele>
        <time>2017-03-05T16:28:53Z</time>
      </trkpt>
      <trkpt lat="48.31103" lon="3.01325">
        <ele>110.91271209717</ele>
        <time>2017-03-05T16:28:59Z</time>
      </trkpt>
      <trkpt lat="48.31179" lon="3.0139">
        <ele>107.56870269775</ele>
        <time>2017-03-05T16:29:23Z</time>
      </trkpt>
      <trkpt lat="48.3119" lon="3.01402">
        <ele>107.08810424805</ele>
        <time>2017-03-05T16:29:46Z</time>
      </trkpt>
      <trkpt lat="48.3119" lon="3.01408">
        <ele>107.08810424805</ele>
        <time>2017-03-05T16:29:50Z</time>
      </trkpt>
      <trkpt lat="48.3119" lon="3.01408">
        <ele>107.08810424805</ele>
        <time>2017-03-05T16:29:51Z</time>
      </trkpt>
      <trkpt lat="48.3119" lon="3.01466">
        <ele>106.79797363281</ele>
        <time>2017-03-05T16:29:51Z</time>
      </trkpt>
      <trkpt lat="48.31195" lon="3.01509">
        <ele>106.24643707275</ele>
        <time>2017-03-05T16:30:01Z</time>
      </trkpt>
      <trkpt lat="48.31205" lon="3.01576">
        <ele>105.97399139404</ele>
        <time>2017-03-05T16:30:09Z</time>
      </trkpt>
      <trkpt lat="48.31213" lon="3.01616">
        <ele>106.3235168457</ele>
        <time>2017-03-05T16:30:21Z</time>
      </trkpt>
      <trkpt lat="48.31225" lon="3.01657">
        <ele>106.65864562988</ele>
        <time>2017-03-05T16:30:28Z</time>
      </trkpt>
      <trkpt lat="48.31227" lon="3.01663">
        <ele>106.75128936768</ele>
        <time>2017-03-05T16:30:36Z</time>
      </trkpt>
      <trkpt lat="48.31227" lon="3.01663">
        <ele>106.75128936768</ele>
        <time>2017-03-05T16:30:37Z</time>
      </trkpt>
      <trkpt lat="48.31205" lon="3.01692">
        <ele>107.35689544678</ele>
        <time>2017-03-05T16:30:37Z</time>
      </trkpt>
      <trkpt lat="48.3119" lon="3.01709">
        <ele>107.30786132812</ele>
        <time>2017-03-05T16:30:45Z</time>
      </trkpt>
      <trkpt lat="48.31162" lon="3.01732">
        <ele>107.33419036865</ele>
        <time>2017-03-05T16:30:50Z</time>
      </trkpt>
      <trkpt lat="48.31146" lon="3.01748">
        <ele>107.50775146484</ele>
        <time>2017-03-05T16:30:59Z</time>
      </trkpt>
      <trkpt lat="48.31127" lon="3.01775">
        <ele>107.40531158447</ele>
        <time>2017-03-05T16:31:04Z</time>
      </trkpt>
      <trkpt lat="48.31085" lon="3.01832">
        <ele>107.97231292725</ele>
        <time>2017-03-05T16:31:11Z</time>
      </trkpt>
      <trkpt lat="48.31071" lon="3.01854">
        <ele>108.78573608398</ele>
        <time>2017-03-05T16:31:26Z</time>
      </trkpt>
      <trkpt lat="48.31065" lon="3.01871">
        <ele>110.07110595703</ele>
        <time>2017-03-05T16:31:31Z</time>
      </trkpt>
      <trkpt lat="48.31059" lon="3.0191">
        <ele>112.65229034424</ele>
        <time>2017-03-05T16:31:34Z</time>
      </trkpt>
      <trkpt lat="48.31047" lon="3.0195">
        <ele>115.04189300537</ele>
        <time>2017-03-05T16:31:41Z</time>
      </trkpt>
      <trkpt lat="48.31034" lon="3.01981">
        <ele>115.91139221191</ele>
        <time>2017-03-05T16:31:49Z</time>
      </trkpt>
      <trkpt lat="48.3099" lon="3.02074">
        <ele>119.91735839844</ele>
        <time>2017-03-05T16:31:56Z</time>
      </trkpt>
      <trkpt lat="48.3095" lon="3.02167">
        <ele>123.00512695312</ele>
        <time>2017-03-05T16:32:16Z</time>
      </trkpt>
      <trkpt lat="48.3095" lon="3.02167">
        <ele>123.00512695312</ele>
        <time>2017-03-05T16:32:36Z</time>
      </trkpt>
      <trkpt lat="48.30939" lon="3.02201">
        <ele>123.93869781494</ele>
        <time>2017-03-05T16:32:36Z</time>
      </trkpt>
      <trkpt lat="48.30924" lon="3.02232">
        <ele>123.64789581299</ele>
        <time>2017-03-05T16:32:43Z</time>
      </trkpt>
      <trkpt lat="48.30916" lon="3.02268">
        <ele>124.08203125</ele>
        <time>2017-03-05T16:32:50Z</time>
      </trkpt>
      <trkpt lat="48.30914" lon="3.0232">
        <ele>125.87922668457</ele>
        <time>2017-03-05T16:32:57Z</time>
      </trkpt>
      <trkpt lat="48.30914" lon="3.024">
        <ele>129.33843994141</ele>
        <time>2017-03-05T16:33:06Z</time>
      </trkpt>
      <trkpt lat="48.30909" lon="3.02436">
        <ele>130.43830871582</ele>
        <time>2017-03-05T16:33:20Z</time>
      </trkpt>
      <trkpt lat="48.30899" lon="3.02474">
        <ele>130.89082336426</ele>
        <time>2017-03-05T16:33:27Z</time>
      </trkpt>
      <trkpt lat="48.30869" lon="3.02572">
        <ele>132.6764831543</ele>
        <time>2017-03-05T16:33:34Z</time>
      </trkpt>
      <trkpt lat="48.30852" lon="3.02601">
        <ele>132.48937988281</ele>
        <time>2017-03-05T16:33:53Z</time>
      </trkpt>
      <trkpt lat="48.30841" lon="3.02639">
        <ele>134.04843139648</ele>
        <time>2017-03-05T16:34:00Z</time>
      </trkpt>
      <trkpt lat="48.30834" lon="3.02675">
        <ele>135.91078186035</ele>
        <time>2017-03-05T16:34:07Z</time>
      </trkpt>
      <trkpt lat="48.30803" lon="3.02755">
        <ele>139.27844238281</ele>
        <time>2017-03-05T16:34:14Z</time>
      </trkpt>
      <trkpt lat="48.3078" lon="3.02878">
        <ele>146.9352722168</ele>
        <time>2017-03-05T16:34:30Z</time>
      </trkpt>
      <trkpt lat="48.30767" lon="3.02944">
        <ele>147.13522338867</ele>
        <time>2017-03-05T16:34:53Z</time>
      </trkpt>
      <trkpt lat="48.30767" lon="3.02944">
        <ele>147.13522338867</ele>
        <time>2017-03-05T16:35:05Z</time>
      </trkpt>
      <trkpt lat="48.30869" lon="3.02903">
        <ele>150.90222167969</ele>
        <time>2017-03-05T16:35:05Z</time>
      </trkpt>
      <trkpt lat="48.30905" lon="3.02895">
        <ele>153.92010498047</ele>
        <time>2017-03-05T16:35:33Z</time>
      </trkpt>
      <trkpt lat="48.30961" lon="3.0288">
        <ele>158.81346130371</ele>
        <time>2017-03-05T16:35:43Z</time>
      </trkpt>
      <trkpt lat="48.31006" lon="3.02873">
        <ele>161.52000427246</ele>
        <time>2017-03-05T16:35:58Z</time>
      </trkpt>
      <trkpt lat="48.3105" lon="3.02865">
        <ele>163.47381591797</ele>
        <time>2017-03-05T16:36:10Z</time>
      </trkpt>
      <trkpt lat="48.3108" lon="3.02865">
        <ele>163.9107208252</ele>
        <time>2017-03-05T16:36:22Z</time>
      </trkpt>
      <trkpt lat="48.31118" lon="3.02862">
        <ele>164.25244140625</ele>
        <time>2017-03-05T16:36:30Z</time>
      </trkpt>
      <trkpt lat="48.31148" lon="3.02879">
        <ele>164.00485229492</ele>
        <time>2017-03-05T16:36:40Z</time>
      </trkpt>
      <trkpt lat="48.31214" lon="3.02934">
        <ele>163.73355102539</ele>
        <time>2017-03-05T16:36:49Z</time>
      </trkpt>
      <trkpt lat="48.31245" lon="3.02962">
        <ele>163.9940032959</ele>
        <time>2017-03-05T16:37:09Z</time>
      </trkpt>
      <trkpt lat="48.31299" lon="3.03019">
        <ele>163.1831817627</ele>
        <time>2017-03-05T16:37:19Z</time>
      </trkpt>
      <trkpt lat="48.31342" lon="3.03083">
        <ele>161.49871826172</ele>
        <time>2017-03-05T16:37:37Z</time>
      </trkpt>
      <trkpt lat="48.3137" lon="3.03111">
        <ele>160.29893493652</ele>
        <time>2017-03-05T16:37:53Z</time>
      </trkpt>
      <trkpt lat="48.31409" lon="3.03177">
        <ele>157.99475097656</ele>
        <time>2017-03-05T16:38:02Z</time>
      </trkpt>
      <trkpt lat="48.31426" lon="3.03202">
        <ele>156.9024810791</ele>
        <time>2017-03-05T16:38:18Z</time>
      </trkpt>
      <trkpt lat="48.31472" lon="3.03243">
        <ele>154.52574157715</ele>
        <time>2017-03-05T16:38:24Z</time>
      </trkpt>
      <trkpt lat="48.31508" lon="3.03258">
        <ele>153.48725891113</ele>
        <time>2017-03-05T16:38:38Z</time>
      </trkpt>
      <trkpt lat="48.31552" lon="3.03261">
        <ele>151.15544128418</ele>
        <time>2017-03-05T16:38:48Z</time>
      </trkpt>
      <trkpt lat="48.31625" lon="3.03239">
        <ele>143.94239807129</ele>
        <time>2017-03-05T16:39:00Z</time>
      </trkpt>
      <trkpt lat="48.3167" lon="3.03212">
        <ele>136.61949157715</ele>
        <time>2017-03-05T16:39:20Z</time>
      </trkpt>
      <trkpt lat="48.31684" lon="3.03208">
        <ele>134.55389404297</ele>
        <time>2017-03-05T16:39:33Z</time>
      </trkpt>
      <trkpt lat="48.31738" lon="3.03205">
        <ele>127.26998138428</ele>
        <time>2017-03-05T16:39:37Z</time>
      </trkpt>
      <trkpt lat="48.31766" lon="3.03206">
        <ele>123.43997955322</ele>
        <time>2017-03-05T16:39:51Z</time>
      </trkpt>
      <trkpt lat="48.31787" lon="3.03202">
        <ele>120.41331481934</ele>
        <time>2017-03-05T16:39:58Z</time>
      </trkpt>
      <trkpt lat="48.31805" lon="3.03194">
        <ele>117.82036590576</ele>
        <time>2017-03-05T16:40:04Z</time>
      </trkpt>
      <trkpt lat="48.31842" lon="3.03169">
        <ele>112.24252319336</ele>
        <time>2017-03-05T16:40:09Z</time>
      </trkpt>
      <trkpt lat="48.31871" lon="3.03154">
        <ele>108.66973876953</ele>
        <time>2017-03-05T16:40:20Z</time>
      </trkpt>
      <trkpt lat="48.31942" lon="3.03185">
        <ele>103.56881713867</ele>
        <time>2017-03-05T16:40:28Z</time>
      </trkpt>
      <trkpt lat="48.31958" lon="3.03193">
        <ele>102.82410430908</ele>
        <time>2017-03-05T16:40:48Z</time>
      </trkpt>
      <trkpt lat="48.3197" lon="3.03202">
        <ele>102.24462890625</ele>
        <time>2017-03-05T16:40:53Z</time>
      </trkpt>
      <trkpt lat="48.31977" lon="3.03207">
        <ele>101.88459777832</ele>
        <time>2017-03-05T16:40:57Z</time>
      </trkpt>
      <trkpt lat="48.31977" lon="3.03203">
        <ele>101.87093353271</ele>
        <time>2017-03-05T16:40:59Z</time>
      </trkpt>
      <trkpt lat="48.31977" lon="3.03203">
        <ele>101.87093353271</ele>
        <time>2017-03-05T16:41:00Z</time>
      </trkpt>
      <trkpt lat="48.3197" lon="3.03248">
        <ele>102.3458480835</ele>
        <time>2017-03-05T16:41:00Z</time>
      </trkpt>
      <trkpt lat="48.31971" lon="3.03277">
        <ele>102.28759765625</ele>
        <time>2017-03-05T16:41:08Z</time>
      </trkpt>
      <trkpt lat="48.3198" lon="3.03348">
        <ele>101.76330566406</ele>
        <time>2017-03-05T16:41:13Z</time>
      </trkpt>
      <trkpt lat="48.32025" lon="3.03667">
        <ele>103.47791290283</ele>
        <time>2017-03-05T16:41:26Z</time>
      </trkpt>
      <trkpt lat="48.3205" lon="3.03803">
        <ele>106.34275817871</ele>
        <time>2017-03-05T16:42:24Z</time>
      </trkpt>
      <trkpt lat="48.32052" lon="3.03827">
        <ele>106.28450012207</ele>
        <time>2017-03-05T16:42:49Z</time>
      </trkpt>
      <trkpt lat="48.3205" lon="3.03847">
        <ele>106.25009155273</ele>
        <time>2017-03-05T16:42:53Z</time>
      </trkpt>
      <trkpt lat="48.32044" lon="3.03866">
        <ele>106.14814758301</ele>
        <time>2017-03-05T16:42:57Z</time>
      </trkpt>
      <trkpt lat="48.32029" lon="3.03891">
        <ele>106.22096252441</ele>
        <time>2017-03-05T16:43:01Z</time>
      </trkpt>
      <trkpt lat="48.32026" lon="3.03894">
        <ele>106.26465606689</ele>
        <time>2017-03-05T16:43:07Z</time>
      </trkpt>
      <trkpt lat="48.32026" lon="3.03894">
        <ele>106.26465606689</ele>
        <time>2017-03-05T16:43:08Z</time>
      </trkpt>
      <trkpt lat="48.32037" lon="3.03901">
        <ele>105.84230804443</ele>
        <time>2017-03-05T16:43:08Z</time>
      </trkpt>
      <trkpt lat="48.32087" lon="3.03899">
        <ele>104.04760742188</ele>
        <time>2017-03-05T16:43:11Z</time>
      </trkpt>
      <trkpt lat="48.32118" lon="3.03885">
        <ele>102.89708709717</ele>
        <time>2017-03-05T16:43:24Z</time>
      </trkpt>
      <trkpt lat="48.32147" lon="3.03869">
        <ele>102.34564971924</ele>
        <time>2017-03-05T16:43:33Z</time>
      </trkpt>
      <trkpt lat="48.3216" lon="3.03866">
        <ele>102.20001220703</ele>
        <time>2017-03-05T16:43:41Z</time>
      </trkpt>
      <trkpt lat="48.32167" lon="3.03867">
        <ele>102.08350372314</ele>
        <time>2017-03-05T16:43:45Z</time>
      </trkpt>
      <trkpt lat="48.32186" lon="3.03875">
        <ele>101.6902923584</ele>
        <time>2017-03-05T16:43:47Z</time>
      </trkpt>
      <trkpt lat="48.32235" lon="3.0393">
        <ele>100.84238433838</ele>
        <time>2017-03-05T16:43:52Z</time>
      </trkpt>
      <trkpt lat="48.32256" lon="3.03948">
        <ele>100.53295135498</ele>
        <time>2017-03-05T16:44:08Z</time>
      </trkpt>
      <trkpt lat="48.32285" lon="3.03961">
        <ele>99.93399810791</ele>
        <time>2017-03-05T16:44:14Z</time>
      </trkpt>
      <trkpt lat="48.32307" lon="3.0397">
        <ele>99.47826385498</ele>
        <time>2017-03-05T16:44:22Z</time>
      </trkpt>
      <trkpt lat="48.32307" lon="3.0397">
        <ele>99.47826385498</ele>
        <time>2017-03-05T16:44:28Z</time>
      </trkpt>
      <trkpt lat="48.32303" lon="3.03968">
        <ele>99.557456970215</ele>
        <time>2017-03-05T16:44:28Z</time>
      </trkpt>
      <trkpt lat="48.32335" lon="3.03942">
        <ele>99.031639099121</ele>
        <time>2017-03-05T16:44:29Z</time>
      </trkpt>
      <trkpt lat="48.32378" lon="3.03907">
        <ele>96.524307250977</ele>
        <time>2017-03-05T16:44:39Z</time>
      </trkpt>
      <trkpt lat="48.32421" lon="3.03862">
        <ele>92.30411529541</ele>
        <time>2017-03-05T16:44:52Z</time>
      </trkpt>
      <trkpt lat="48.32489" lon="3.03784">
        <ele>83.415367126465</ele>
        <time>2017-03-05T16:45:06Z</time>
      </trkpt>
      <trkpt lat="48.32515" lon="3.03756">
        <ele>80.717948913574</ele>
        <time>2017-03-05T16:45:29Z</time>
      </trkpt>
      <trkpt lat="48.32534" lon="3.0374">
        <ele>79.441802978516</ele>
        <time>2017-03-05T16:45:38Z</time>
      </trkpt>
      <trkpt lat="48.32549" lon="3.03722">
        <ele>79.113403320312</ele>
        <time>2017-03-05T16:45:44Z</time>
      </trkpt>
      <trkpt lat="48.32596" lon="3.03673">
        <ele>81.787864685059</ele>
        <time>2017-03-05T16:45:49Z</time>
      </trkpt>
      <trkpt lat="48.32602" lon="3.03666">
        <ele>82.29354095459</ele>
        <time>2017-03-05T16:46:04Z</time>
      </trkpt>
      <trkpt lat="48.32604" lon="3.03671">
        <ele>82.156684875488</ele>
        <time>2017-03-05T16:46:06Z</time>
      </trkpt>
      <trkpt lat="48.32604" lon="3.03671">
        <ele>82.156684875488</ele>
        <time>2017-03-05T16:46:07Z</time>
      </trkpt>
      <trkpt lat="48.32598" lon="3.0366">
        <ele>82.39087677002</ele>
        <time>2017-03-05T16:46:07Z</time>
      </trkpt>
      <trkpt lat="48.32581" lon="3.03635">
        <ele>82.672309875488</ele>
        <time>2017-03-05T16:46:10Z</time>
      </trkpt>
      <trkpt lat="48.32586" lon="3.0363">
        <ele>83.082237243652</ele>
        <time>2017-03-05T16:46:16Z</time>
      </trkpt>
      <trkpt lat="48.32588" lon="3.03629">
        <ele>83.210388183594</ele>
        <time>2017-03-05T16:46:18Z</time>
      </trkpt>
      <trkpt lat="48.32588" lon="3.03629">
        <ele>83.210388183594</ele>
        <time>2017-03-05T16:46:19Z</time>
      </trkpt>
      <trkpt lat="48.32592" lon="3.03629">
        <ele>83.389938354492</ele>
        <time>2017-03-05T16:46:19Z</time>
      </trkpt>
      <trkpt lat="48.32602" lon="3.03635">
        <ele>83.588226318359</ele>
        <time>2017-03-05T16:46:20Z</time>
      </trkpt>
      <trkpt lat="48.32619" lon="3.03649">
        <ele>83.809791564941</ele>
        <time>2017-03-05T16:46:23Z</time>
      </trkpt>
      <trkpt lat="48.32657" lon="3.03672">
        <ele>84.678871154785</ele>
        <time>2017-03-05T16:46:28Z</time>
      </trkpt>
      <trkpt lat="48.32738" lon="3.03712">
        <ele>86.057899475098</ele>
        <time>2017-03-05T16:46:39Z</time>
      </trkpt>
      <trkpt lat="48.32763" lon="3.03724">
        <ele>86.495941162109</ele>
        <time>2017-03-05T16:47:02Z</time>
      </trkpt>
      <trkpt lat="48.32784" lon="3.03727">
        <ele>87.353485107422</ele>
        <time>2017-03-05T16:47:09Z</time>
      </trkpt>
      <trkpt lat="48.3282" lon="3.03716">
        <ele>89.538467407227</ele>
        <time>2017-03-05T16:47:15Z</time>
      </trkpt>
      <trkpt lat="48.32834" lon="3.03713">
        <ele>90.10424041748</ele>
        <time>2017-03-05T16:47:25Z</time>
      </trkpt>
      <trkpt lat="48.32894" lon="3.03712">
        <ele>92.002578735352</ele>
        <time>2017-03-05T16:47:29Z</time>
      </trkpt>
      <trkpt lat="48.32925" lon="3.03713">
        <ele>92.941871643066</ele>
        <time>2017-03-05T16:47:45Z</time>
      </trkpt>
      <trkpt lat="48.32925" lon="3.03713">
        <ele>92.941871643066</ele>
        <time>2017-03-05T16:47:53Z</time>
      </trkpt>
      <trkpt lat="48.32937" lon="3.03718">
        <ele>93.224784851074</ele>
        <time>2017-03-05T16:47:53Z</time>
      </trkpt>
      <trkpt lat="48.32969" lon="3.03744">
        <ele>93.74585723877</ele>
        <time>2017-03-05T16:47:56Z</time>
      </trkpt>
      <trkpt lat="48.32993" lon="3.03766">
        <ele>94.162200927734</ele>
        <time>2017-03-05T16:48:06Z</time>
      </trkpt>
      <trkpt lat="48.33015" lon="3.03792">
        <ele>94.764907836914</ele>
        <time>2017-03-05T16:48:14Z</time>
      </trkpt>
      <trkpt lat="48.33053" lon="3.03835">
        <ele>95.835952758789</ele>
        <time>2017-03-05T16:48:21Z</time>
      </trkpt>
      <trkpt lat="48.33062" lon="3.03844">
        <ele>96.063697814941</ele>
        <time>2017-03-05T16:48:34Z</time>
      </trkpt>
      <trkpt lat="48.33088" lon="3.03864">
        <ele>96.532424926758</ele>
        <time>2017-03-05T16:48:37Z</time>
      </trkpt>
      <trkpt lat="48.33154" lon="3.03903">
        <ele>97.822128295898</ele>
        <time>2017-03-05T16:48:45Z</time>
      </trkpt>
      <trkpt lat="48.3326" lon="3.03956">
        <ele>98.549476623535</ele>
        <time>2017-03-05T16:49:04Z</time>
      </trkpt>
      <trkpt lat="48.33311" lon="3.03985">
        <ele>97.71590423584</ele>
        <time>2017-03-05T16:49:34Z</time>
      </trkpt>
      <trkpt lat="48.33354" lon="3.04018">
        <ele>96.944038391113</ele>
        <time>2017-03-05T16:49:49Z</time>
      </trkpt>
      <trkpt lat="48.33351" lon="3.04024">
        <ele>97.118797302246</ele>
        <time>2017-03-05T16:50:02Z</time>
      </trkpt>
      <trkpt lat="48.33351" lon="3.04024">
        <ele>97.118797302246</ele>
        <time>2017-03-05T16:50:03Z</time>
      </trkpt>
      <trkpt lat="48.33354" lon="3.04018">
        <ele>96.944038391113</ele>
        <time>2017-03-05T16:50:03Z</time>
      </trkpt>
      <trkpt lat="48.33381" lon="3.04041">
        <ele>96.297294616699</ele>
        <time>2017-03-05T16:50:04Z</time>
      </trkpt>
      <trkpt lat="48.3344" lon="3.04093">
        <ele>94.531372070312</ele>
        <time>2017-03-05T16:50:12Z</time>
      </trkpt>
      <trkpt lat="48.335" lon="3.04151">
        <ele>93.136642456055</ele>
        <time>2017-03-05T16:50:30Z</time>
      </trkpt>
      <trkpt lat="48.33536" lon="3.04192">
        <ele>92.183967590332</ele>
        <time>2017-03-05T16:50:49Z</time>
      </trkpt>
      <trkpt lat="48.33653" lon="3.04322">
        <ele>87.469444274902</ele>
        <time>2017-03-05T16:51:01Z</time>
      </trkpt>
      <trkpt lat="48.33734" lon="3.04408">
        <ele>84.122825622559</ele>
        <time>2017-03-05T16:51:40Z</time>
      </trkpt>
      <trkpt lat="48.339" lon="3.04564">
        <ele>81.45760345459</ele>
        <time>2017-03-05T16:52:06Z</time>
      </trkpt>
      <trkpt lat="48.33926" lon="3.04584">
        <ele>81.097702026367</ele>
        <time>2017-03-05T16:52:58Z</time>
      </trkpt>
      <trkpt lat="48.3397" lon="3.04605">
        <ele>81.686408996582</ele>
        <time>2017-03-05T16:53:06Z</time>
      </trkpt>
      <trkpt lat="48.3401" lon="3.04623">
        <ele>80.260284423828</ele>
        <time>2017-03-05T16:53:18Z</time>
      </trkpt>
      <trkpt lat="48.34088" lon="3.04668">
        <ele>77.056167602539</ele>
        <time>2017-03-05T16:53:29Z</time>
      </trkpt>
      <trkpt lat="48.34127" lon="3.04691">
        <ele>76.614356994629</ele>
        <time>2017-03-05T16:53:51Z</time>
      </trkpt>
      <trkpt lat="48.34184" lon="3.04727">
        <ele>76.002685546875</ele>
        <time>2017-03-05T16:54:02Z</time>
      </trkpt>
      <trkpt lat="48.34206" lon="3.04748">
        <ele>75.469451904297</ele>
        <time>2017-03-05T16:54:19Z</time>
      </trkpt>
      <trkpt lat="48.34248" lon="3.04807">
        <ele>73.877090454102</ele>
        <time>2017-03-05T16:54:26Z</time>
      </trkpt>
      <trkpt lat="48.34277" lon="3.04838">
        <ele>72.092597961426</ele>
        <time>2017-03-05T16:54:41Z</time>
      </trkpt>
      <trkpt lat="48.34313" lon="3.04864">
        <ele>69.898452758789</ele>
        <time>2017-03-05T16:54:51Z</time>
      </trkpt>
      <trkpt lat="48.34319" lon="3.04868">
        <ele>69.562271118164</ele>
        <time>2017-03-05T16:55:02Z</time>
      </trkpt>
      <trkpt lat="48.34322" lon="3.04855">
        <ele>68.979217529297</ele>
        <time>2017-03-05T16:55:04Z</time>
      </trkpt>
      <trkpt lat="48.34339" lon="3.04871">
        <ele>68.511940002441</ele>
        <time>2017-03-05T16:55:06Z</time>
      </trkpt>
      <trkpt lat="48.34393" lon="3.04907">
        <ele>66.676933288574</ele>
        <time>2017-03-05T16:55:11Z</time>
      </trkpt>
      <trkpt lat="48.34477" lon="3.04966">
        <ele>62.623916625977</ele>
        <time>2017-03-05T16:55:27Z</time>
      </trkpt>
      <trkpt lat="48.34534" lon="3.05008">
        <ele>58.986518859863</ele>
        <time>2017-03-05T16:55:52Z</time>
      </trkpt>
      <trkpt lat="48.34567" lon="3.05032">
        <ele>57.544723510742</ele>
        <time>2017-03-05T16:56:09Z</time>
      </trkpt>
      <trkpt lat="48.34577" lon="3.05036">
        <ele>57.107818603516</ele>
        <time>2017-03-05T16:56:19Z</time>
      </trkpt>
      <trkpt lat="48.3457" lon="3.05052">
        <ele>57.413654327393</ele>
        <time>2017-03-05T16:56:22Z</time>
      </trkpt>
      <trkpt lat="48.34555" lon="3.05087">
        <ele>57.964546203613</ele>
        <time>2017-03-05T16:56:25Z</time>
      </trkpt>
      <trkpt lat="48.34536" lon="3.05131">
        <ele>58.133502960205</ele>
        <time>2017-03-05T16:56:32Z</time>
      </trkpt>
      <trkpt lat="48.3453" lon="3.05148">
        <ele>58.13533782959</ele>
        <time>2017-03-05T16:56:41Z</time>
      </trkpt>
      <trkpt lat="48.34519" lon="3.05218">
        <ele>56.737236022949</ele>
        <time>2017-03-05T16:56:44Z</time>
      </trkpt>
      <trkpt lat="48.34509" lon="3.05273">
        <ele>55.717788696289</ele>
        <time>2017-03-05T16:56:57Z</time>
      </trkpt>
      <trkpt lat="48.34504" lon="3.05288">
        <ele>55.695598602295</ele>
        <time>2017-03-05T16:57:07Z</time>
      </trkpt>
      <trkpt lat="48.34495" lon="3.05301">
        <ele>56.102882385254</ele>
        <time>2017-03-05T16:57:10Z</time>
      </trkpt>
      <trkpt lat="48.3447" lon="3.05323">
        <ele>57.164440155029</ele>
        <time>2017-03-05T16:57:13Z</time>
      </trkpt>
      <trkpt lat="48.34433" lon="3.05351">
        <ele>59.337619781494</ele>
        <time>2017-03-05T16:57:21Z</time>
      </trkpt>
    </trkseg>
  </trk>
</gpx>